<?xml version="1.0" encoding="UTF-8" standalone="no" ?>
<gpx xmlns="http://www.topografix.com/GPX/1/1" xmlns:xsi="http://www.w3.org/2001/XMLSchema-instance" xsi:schemaLocation="http://www.topografix.com/GPX/1/1 http://www.topografix.com/GPX/1/1/gpx.xsd" version="1.1" creator="VisuGPX - https://www.visugpx.com">
  <metadata>
    <name>Entre Vexin et Arthies</name>
    <desc><![CDATA[Randonnée de 22km en boucle à partir de la place de l'église de Maudétour-en-Vexin]]></desc>
  </metadata>
  <trk>
    <name><![CDATA[Entre Vexin et Arthies]]></name>
    <trkseg>
      <trkpt lat="49.10008" lon="1.77558">
        <ele>167</ele>
        <time>2019-05-19T09:13:20+02:00</time>
      </trkpt>
      <trkpt lat="49.09989" lon="1.77576">
        <ele>168</ele>
        <time>2019-05-19T09:13:46+02:00</time>
      </trkpt>
      <trkpt lat="49.09969" lon="1.77557">
        <ele>168</ele>
        <time>2019-05-19T09:14:09+02:00</time>
      </trkpt>
      <trkpt lat="49.09959" lon="1.77526">
        <ele>168</ele>
        <time>2019-05-19T09:14:30+02:00</time>
      </trkpt>
      <trkpt lat="49.09977" lon="1.77503">
        <ele>167</ele>
        <time>2019-05-19T09:15:13+02:00</time>
      </trkpt>
      <trkpt lat="49.09992" lon="1.77476">
        <ele>166</ele>
        <time>2019-05-19T09:15:31+02:00</time>
      </trkpt>
      <trkpt lat="49.09994" lon="1.7744">
        <ele>165</ele>
        <time>2019-05-19T09:15:50+02:00</time>
      </trkpt>
      <trkpt lat="49.09996" lon="1.77403">
        <ele>164</ele>
        <time>2019-05-19T09:16:07+02:00</time>
      </trkpt>
      <trkpt lat="49.09993" lon="1.77368">
        <ele>162</ele>
        <time>2019-05-19T09:16:25+02:00</time>
      </trkpt>
      <trkpt lat="49.09985" lon="1.77335">
        <ele>161</ele>
        <time>2019-05-19T09:16:44+02:00</time>
      </trkpt>
      <trkpt lat="49.09972" lon="1.77307">
        <ele>160</ele>
        <time>2019-05-19T09:17:02+02:00</time>
      </trkpt>
      <trkpt lat="49.09958" lon="1.77279">
        <ele>159</ele>
        <time>2019-05-19T09:17:20+02:00</time>
      </trkpt>
      <trkpt lat="49.09946" lon="1.77249">
        <ele>157</ele>
        <time>2019-05-19T09:17:37+02:00</time>
      </trkpt>
      <trkpt lat="49.09932" lon="1.7722">
        <ele>157</ele>
        <time>2019-05-19T09:17:54+02:00</time>
      </trkpt>
      <trkpt lat="49.09919" lon="1.77191">
        <ele>158</ele>
        <time>2019-05-19T09:18:11+02:00</time>
      </trkpt>
      <trkpt lat="49.09907" lon="1.77161">
        <ele>158</ele>
        <time>2019-05-19T09:18:31+02:00</time>
      </trkpt>
      <trkpt lat="49.09896" lon="1.77131">
        <ele>159</ele>
        <time>2019-05-19T09:18:51+02:00</time>
      </trkpt>
      <trkpt lat="49.09882" lon="1.77102">
        <ele>160</ele>
        <time>2019-05-19T09:19:08+02:00</time>
      </trkpt>
      <trkpt lat="49.0987" lon="1.7707">
        <ele>160</ele>
        <time>2019-05-19T09:19:27+02:00</time>
      </trkpt>
      <trkpt lat="49.09855" lon="1.77043">
        <ele>160</ele>
        <time>2019-05-19T09:19:45+02:00</time>
      </trkpt>
      <trkpt lat="49.09841" lon="1.77013">
        <ele>160</ele>
        <time>2019-05-19T09:20:04+02:00</time>
      </trkpt>
      <trkpt lat="49.09829" lon="1.76985">
        <ele>159</ele>
        <time>2019-05-19T09:20:20+02:00</time>
      </trkpt>
      <trkpt lat="49.09814" lon="1.76957">
        <ele>159</ele>
        <time>2019-05-19T09:20:38+02:00</time>
      </trkpt>
      <trkpt lat="49.09797" lon="1.76933">
        <ele>159</ele>
        <time>2019-05-19T09:20:56+02:00</time>
      </trkpt>
      <trkpt lat="49.09779" lon="1.76911">
        <ele>159</ele>
        <time>2019-05-19T09:21:15+02:00</time>
      </trkpt>
      <trkpt lat="49.0976" lon="1.76892">
        <ele>159</ele>
        <time>2019-05-19T09:21:33+02:00</time>
      </trkpt>
      <trkpt lat="49.09744" lon="1.76866">
        <ele>160</ele>
        <time>2019-05-19T09:21:56+02:00</time>
      </trkpt>
      <trkpt lat="49.09734" lon="1.76835">
        <ele>160</ele>
        <time>2019-05-19T09:22:14+02:00</time>
      </trkpt>
      <trkpt lat="49.09727" lon="1.76801">
        <ele>161</ele>
        <time>2019-05-19T09:22:34+02:00</time>
      </trkpt>
      <trkpt lat="49.09718" lon="1.76768">
        <ele>163</ele>
        <time>2019-05-19T09:22:52+02:00</time>
      </trkpt>
      <trkpt lat="49.0971" lon="1.76734">
        <ele>164</ele>
        <time>2019-05-19T09:23:13+02:00</time>
      </trkpt>
      <trkpt lat="49.09701" lon="1.76699">
        <ele>164</ele>
        <time>2019-05-19T09:23:34+02:00</time>
      </trkpt>
      <trkpt lat="49.09693" lon="1.76666">
        <ele>165</ele>
        <time>2019-05-19T09:23:50+02:00</time>
      </trkpt>
      <trkpt lat="49.09687" lon="1.76633">
        <ele>164</ele>
        <time>2019-05-19T09:24:08+02:00</time>
      </trkpt>
      <trkpt lat="49.09677" lon="1.766">
        <ele>163</ele>
        <time>2019-05-19T09:24:25+02:00</time>
      </trkpt>
      <trkpt lat="49.09672" lon="1.76566">
        <ele>162</ele>
        <time>2019-05-19T09:24:43+02:00</time>
      </trkpt>
      <trkpt lat="49.09665" lon="1.76533">
        <ele>163</ele>
        <time>2019-05-19T09:25:03+02:00</time>
      </trkpt>
      <trkpt lat="49.09657" lon="1.76499">
        <ele>163</ele>
        <time>2019-05-19T09:25:21+02:00</time>
      </trkpt>
      <trkpt lat="49.09649" lon="1.76466">
        <ele>164</ele>
        <time>2019-05-19T09:25:46+02:00</time>
      </trkpt>
      <trkpt lat="49.09639" lon="1.76434">
        <ele>165</ele>
        <time>2019-05-19T09:26:04+02:00</time>
      </trkpt>
      <trkpt lat="49.09633" lon="1.76396">
        <ele>165</ele>
        <time>2019-05-19T09:26:26+02:00</time>
      </trkpt>
      <trkpt lat="49.0962" lon="1.76366">
        <ele>165</ele>
        <time>2019-05-19T09:26:46+02:00</time>
      </trkpt>
      <trkpt lat="49.09601" lon="1.76343">
        <ele>167</ele>
        <time>2019-05-19T09:27:06+02:00</time>
      </trkpt>
      <trkpt lat="49.09589" lon="1.76314">
        <ele>167</ele>
        <time>2019-05-19T09:27:25+02:00</time>
      </trkpt>
      <trkpt lat="49.09576" lon="1.76283">
        <ele>167</ele>
        <time>2019-05-19T09:27:43+02:00</time>
      </trkpt>
      <trkpt lat="49.09565" lon="1.76253">
        <ele>166</ele>
        <time>2019-05-19T09:28:05+02:00</time>
      </trkpt>
      <trkpt lat="49.09556" lon="1.76221">
        <ele>166</ele>
        <time>2019-05-19T09:28:27+02:00</time>
      </trkpt>
      <trkpt lat="49.09547" lon="1.76189">
        <ele>166</ele>
        <time>2019-05-19T09:28:48+02:00</time>
      </trkpt>
      <trkpt lat="49.09542" lon="1.76154">
        <ele>167</ele>
        <time>2019-05-19T09:29:06+02:00</time>
      </trkpt>
      <trkpt lat="49.09529" lon="1.76125">
        <ele>167</ele>
        <time>2019-05-19T09:29:30+02:00</time>
      </trkpt>
      <trkpt lat="49.09529" lon="1.76091">
        <ele>168</ele>
        <time>2019-05-19T09:29:55+02:00</time>
      </trkpt>
      <trkpt lat="49.09529" lon="1.76056">
        <ele>169</ele>
        <time>2019-05-19T09:30:21+02:00</time>
      </trkpt>
      <trkpt lat="49.09528" lon="1.7602">
        <ele>171</ele>
        <time>2019-05-19T09:30:51+02:00</time>
      </trkpt>
      <trkpt lat="49.09528" lon="1.75985">
        <ele>173</ele>
        <time>2019-05-19T09:31:18+02:00</time>
      </trkpt>
      <trkpt lat="49.09525" lon="1.7595">
        <ele>176</ele>
        <time>2019-05-19T09:31:45+02:00</time>
      </trkpt>
      <trkpt lat="49.09522" lon="1.75915">
        <ele>179</ele>
        <time>2019-05-19T09:32:26+02:00</time>
      </trkpt>
      <trkpt lat="49.09517" lon="1.75881">
        <ele>181</ele>
        <time>2019-05-19T09:32:51+02:00</time>
      </trkpt>
      <trkpt lat="49.09513" lon="1.75845">
        <ele>183</ele>
        <time>2019-05-19T09:33:22+02:00</time>
      </trkpt>
      <trkpt lat="49.09508" lon="1.75811">
        <ele>185</ele>
        <time>2019-05-19T09:33:38+02:00</time>
      </trkpt>
      <trkpt lat="49.09504" lon="1.75776">
        <ele>188</ele>
        <time>2019-05-19T09:34:04+02:00</time>
      </trkpt>
      <trkpt lat="49.09496" lon="1.75742">
        <ele>191</ele>
        <time>2019-05-19T09:34:41+02:00</time>
      </trkpt>
      <trkpt lat="49.09502" lon="1.75709">
        <ele>193</ele>
        <time>2019-05-19T09:35:10+02:00</time>
      </trkpt>
      <trkpt lat="49.09501" lon="1.75673">
        <ele>196</ele>
        <time>2019-05-19T09:35:46+02:00</time>
      </trkpt>
      <trkpt lat="49.095" lon="1.75638">
        <ele>199</ele>
        <time>2019-05-19T09:36:12+02:00</time>
      </trkpt>
      <trkpt lat="49.09495" lon="1.75603">
        <ele>201</ele>
        <time>2019-05-19T09:36:41+02:00</time>
      </trkpt>
      <trkpt lat="49.09486" lon="1.75572">
        <ele>203</ele>
        <time>2019-05-19T09:37:13+02:00</time>
      </trkpt>
      <trkpt lat="49.0948" lon="1.75537">
        <ele>204</ele>
        <time>2019-05-19T09:37:37+02:00</time>
      </trkpt>
      <trkpt lat="49.09468" lon="1.75506">
        <ele>205</ele>
        <time>2019-05-19T09:38:04+02:00</time>
      </trkpt>
      <trkpt lat="49.09458" lon="1.75474">
        <ele>206</ele>
        <time>2019-05-19T09:38:22+02:00</time>
      </trkpt>
      <trkpt lat="49.0945" lon="1.75442">
        <ele>207</ele>
        <time>2019-05-19T09:38:44+02:00</time>
      </trkpt>
      <trkpt lat="49.09439" lon="1.75411">
        <ele>207</ele>
        <time>2019-05-19T09:39:07+02:00</time>
      </trkpt>
      <trkpt lat="49.09427" lon="1.75381">
        <ele>207</ele>
        <time>2019-05-19T09:39:30+02:00</time>
      </trkpt>
      <trkpt lat="49.09409" lon="1.75358">
        <ele>208</ele>
        <time>2019-05-19T09:39:58+02:00</time>
      </trkpt>
      <trkpt lat="49.09386" lon="1.75365">
        <ele>208</ele>
        <time>2019-05-19T09:40:24+02:00</time>
      </trkpt>
      <trkpt lat="49.09363" lon="1.75363">
        <ele>209</ele>
        <time>2019-05-19T09:40:44+02:00</time>
      </trkpt>
      <trkpt lat="49.0934" lon="1.75365">
        <ele>209</ele>
        <time>2019-05-19T09:41:04+02:00</time>
      </trkpt>
      <trkpt lat="49.09317" lon="1.75364">
        <ele>210</ele>
        <time>2019-05-19T09:41:28+02:00</time>
      </trkpt>
      <trkpt lat="49.09295" lon="1.75374">
        <ele>210</ele>
        <time>2019-05-19T09:41:56+02:00</time>
      </trkpt>
      <trkpt lat="49.09273" lon="1.75369">
        <ele>210</ele>
        <time>2019-05-19T09:42:20+02:00</time>
      </trkpt>
      <trkpt lat="49.09249" lon="1.75371">
        <ele>211</ele>
        <time>2019-05-19T09:42:42+02:00</time>
      </trkpt>
      <trkpt lat="49.09226" lon="1.7537">
        <ele>211</ele>
        <time>2019-05-19T09:43:05+02:00</time>
      </trkpt>
      <trkpt lat="49.09201" lon="1.75364">
        <ele>211</ele>
        <time>2019-05-19T09:43:31+02:00</time>
      </trkpt>
      <trkpt lat="49.09178" lon="1.75363">
        <ele>210</ele>
        <time>2019-05-19T09:43:51+02:00</time>
      </trkpt>
      <trkpt lat="49.09155" lon="1.75366">
        <ele>210</ele>
        <time>2019-05-19T09:44:12+02:00</time>
      </trkpt>
      <trkpt lat="49.09132" lon="1.75372">
        <ele>210</ele>
        <time>2019-05-19T09:44:39+02:00</time>
      </trkpt>
      <trkpt lat="49.09107" lon="1.75374">
        <ele>210</ele>
        <time>2019-05-19T09:45:02+02:00</time>
      </trkpt>
      <trkpt lat="49.09084" lon="1.75384">
        <ele>210</ele>
        <time>2019-05-19T09:45:21+02:00</time>
      </trkpt>
      <trkpt lat="49.09062" lon="1.7539">
        <ele>210</ele>
        <time>2019-05-19T09:45:41+02:00</time>
      </trkpt>
      <trkpt lat="49.09039" lon="1.7539">
        <ele>211</ele>
        <time>2019-05-19T09:46:03+02:00</time>
      </trkpt>
      <trkpt lat="49.09017" lon="1.75393">
        <ele>211</ele>
        <time>2019-05-19T09:46:22+02:00</time>
      </trkpt>
      <trkpt lat="49.08994" lon="1.75398">
        <ele>211</ele>
        <time>2019-05-19T09:46:46+02:00</time>
      </trkpt>
      <trkpt lat="49.08972" lon="1.75393">
        <ele>209</ele>
        <time>2019-05-19T09:47:28+02:00</time>
      </trkpt>
      <trkpt lat="49.08962" lon="1.75425">
        <ele>209</ele>
        <time>2019-05-19T09:47:52+02:00</time>
      </trkpt>
      <trkpt lat="49.08962" lon="1.75459">
        <ele>211</ele>
        <time>2019-05-19T09:48:11+02:00</time>
      </trkpt>
      <trkpt lat="49.08967" lon="1.75493">
        <ele>212</ele>
        <time>2019-05-19T09:48:30+02:00</time>
      </trkpt>
      <trkpt lat="49.08982" lon="1.75519">
        <ele>213</ele>
        <time>2019-05-19T09:48:51+02:00</time>
      </trkpt>
      <trkpt lat="49.08997" lon="1.75546">
        <ele>214</ele>
        <time>2019-05-19T09:49:10+02:00</time>
      </trkpt>
      <trkpt lat="49.09004" lon="1.75579">
        <ele>214</ele>
        <time>2019-05-19T09:49:27+02:00</time>
      </trkpt>
      <trkpt lat="49.09011" lon="1.75613">
        <ele>214</ele>
        <time>2019-05-19T09:49:45+02:00</time>
      </trkpt>
      <trkpt lat="49.09014" lon="1.75648">
        <ele>214</ele>
        <time>2019-05-19T09:50:05+02:00</time>
      </trkpt>
      <trkpt lat="49.09027" lon="1.75679">
        <ele>214</ele>
        <time>2019-05-19T09:50:33+02:00</time>
      </trkpt>
      <trkpt lat="49.09003" lon="1.7568">
        <ele>214</ele>
        <time>2019-05-19T09:50:53+02:00</time>
      </trkpt>
      <trkpt lat="49.0898" lon="1.75674">
        <ele>214</ele>
        <time>2019-05-19T09:51:15+02:00</time>
      </trkpt>
      <trkpt lat="49.08957" lon="1.75671">
        <ele>214</ele>
        <time>2019-05-19T09:52:18+02:00</time>
      </trkpt>
      <trkpt lat="49.08934" lon="1.75668">
        <ele>214</ele>
        <time>2019-05-19T09:53:10+02:00</time>
      </trkpt>
      <trkpt lat="49.08913" lon="1.75651">
        <ele>214</ele>
        <time>2019-05-19T09:53:32+02:00</time>
      </trkpt>
      <trkpt lat="49.0889" lon="1.75653">
        <ele>214</ele>
        <time>2019-05-19T09:53:53+02:00</time>
      </trkpt>
      <trkpt lat="49.08866" lon="1.7565">
        <ele>215</ele>
        <time>2019-05-19T09:54:11+02:00</time>
      </trkpt>
      <trkpt lat="49.08844" lon="1.75643">
        <ele>215</ele>
        <time>2019-05-19T09:54:29+02:00</time>
      </trkpt>
      <trkpt lat="49.08822" lon="1.75634">
        <ele>215</ele>
        <time>2019-05-19T09:54:46+02:00</time>
      </trkpt>
      <trkpt lat="49.08804" lon="1.75612">
        <ele>215</ele>
        <time>2019-05-19T09:55:08+02:00</time>
      </trkpt>
      <trkpt lat="49.08793" lon="1.75581">
        <ele>215</ele>
        <time>2019-05-19T09:55:27+02:00</time>
      </trkpt>
      <trkpt lat="49.0879" lon="1.75547">
        <ele>214</ele>
        <time>2019-05-19T09:55:43+02:00</time>
      </trkpt>
      <trkpt lat="49.08783" lon="1.75513">
        <ele>213</ele>
        <time>2019-05-19T09:56:04+02:00</time>
      </trkpt>
      <trkpt lat="49.08763" lon="1.75493">
        <ele>213</ele>
        <time>2019-05-19T09:56:37+02:00</time>
      </trkpt>
      <trkpt lat="49.08744" lon="1.75473">
        <ele>212</ele>
        <time>2019-05-19T09:56:55+02:00</time>
      </trkpt>
      <trkpt lat="49.08728" lon="1.75447">
        <ele>210</ele>
        <time>2019-05-19T09:57:17+02:00</time>
      </trkpt>
      <trkpt lat="49.08709" lon="1.75427">
        <ele>208</ele>
        <time>2019-05-19T09:57:33+02:00</time>
      </trkpt>
      <trkpt lat="49.08688" lon="1.75412">
        <ele>207</ele>
        <time>2019-05-19T09:57:53+02:00</time>
      </trkpt>
      <trkpt lat="49.08665" lon="1.75407">
        <ele>207</ele>
        <time>2019-05-19T09:58:10+02:00</time>
      </trkpt>
      <trkpt lat="49.08643" lon="1.75395">
        <ele>206</ele>
        <time>2019-05-19T09:58:31+02:00</time>
      </trkpt>
      <trkpt lat="49.08622" lon="1.75381">
        <ele>206</ele>
        <time>2019-05-19T09:58:49+02:00</time>
      </trkpt>
      <trkpt lat="49.08604" lon="1.7536">
        <ele>205</ele>
        <time>2019-05-19T09:59:08+02:00</time>
      </trkpt>
      <trkpt lat="49.08585" lon="1.7534">
        <ele>206</ele>
        <time>2019-05-19T09:59:27+02:00</time>
      </trkpt>
      <trkpt lat="49.08567" lon="1.75318">
        <ele>206</ele>
        <time>2019-05-19T09:59:49+02:00</time>
      </trkpt>
      <trkpt lat="49.08545" lon="1.75308">
        <ele>207</ele>
        <time>2019-05-19T10:00:15+02:00</time>
      </trkpt>
      <trkpt lat="49.08521" lon="1.75309">
        <ele>207</ele>
        <time>2019-05-19T10:00:37+02:00</time>
      </trkpt>
      <trkpt lat="49.08499" lon="1.75302">
        <ele>207</ele>
        <time>2019-05-19T10:01:01+02:00</time>
      </trkpt>
      <trkpt lat="49.08476" lon="1.753">
        <ele>207</ele>
        <time>2019-05-19T10:01:21+02:00</time>
      </trkpt>
      <trkpt lat="49.08453" lon="1.75291">
        <ele>206</ele>
        <time>2019-05-19T10:01:43+02:00</time>
      </trkpt>
      <trkpt lat="49.0843" lon="1.75294">
        <ele>206</ele>
        <time>2019-05-19T10:02:04+02:00</time>
      </trkpt>
      <trkpt lat="49.08405" lon="1.75295">
        <ele>206</ele>
        <time>2019-05-19T10:02:24+02:00</time>
      </trkpt>
      <trkpt lat="49.08384" lon="1.75282">
        <ele>204</ele>
        <time>2019-05-19T10:02:45+02:00</time>
      </trkpt>
      <trkpt lat="49.08364" lon="1.75268">
        <ele>203</ele>
        <time>2019-05-19T10:03:11+02:00</time>
      </trkpt>
      <trkpt lat="49.08341" lon="1.75263">
        <ele>202</ele>
        <time>2019-05-19T10:03:37+02:00</time>
      </trkpt>
      <trkpt lat="49.08319" lon="1.75253">
        <ele>201</ele>
        <time>2019-05-19T10:03:59+02:00</time>
      </trkpt>
      <trkpt lat="49.083" lon="1.75233">
        <ele>200</ele>
        <time>2019-05-19T10:04:26+02:00</time>
      </trkpt>
      <trkpt lat="49.08278" lon="1.75229">
        <ele>200</ele>
        <time>2019-05-19T10:04:44+02:00</time>
      </trkpt>
      <trkpt lat="49.08255" lon="1.75222">
        <ele>199</ele>
        <time>2019-05-19T10:05:01+02:00</time>
      </trkpt>
      <trkpt lat="49.08236" lon="1.75203">
        <ele>197</ele>
        <time>2019-05-19T10:05:22+02:00</time>
      </trkpt>
      <trkpt lat="49.08217" lon="1.75183">
        <ele>194</ele>
        <time>2019-05-19T10:05:45+02:00</time>
      </trkpt>
      <trkpt lat="49.08199" lon="1.75164">
        <ele>191</ele>
        <time>2019-05-19T10:06:08+02:00</time>
      </trkpt>
      <trkpt lat="49.08183" lon="1.75139">
        <ele>188</ele>
        <time>2019-05-19T10:06:38+02:00</time>
      </trkpt>
      <trkpt lat="49.08178" lon="1.75104">
        <ele>186</ele>
        <time>2019-05-19T10:07:11+02:00</time>
      </trkpt>
      <trkpt lat="49.08177" lon="1.75069">
        <ele>185</ele>
        <time>2019-05-19T10:07:36+02:00</time>
      </trkpt>
      <trkpt lat="49.08175" lon="1.75033">
        <ele>184</ele>
        <time>2019-05-19T10:08:03+02:00</time>
      </trkpt>
      <trkpt lat="49.08171" lon="1.74998">
        <ele>182</ele>
        <time>2019-05-19T10:08:23+02:00</time>
      </trkpt>
      <trkpt lat="49.08163" lon="1.74966">
        <ele>180</ele>
        <time>2019-05-19T10:08:48+02:00</time>
      </trkpt>
      <trkpt lat="49.08154" lon="1.74933">
        <ele>178</ele>
        <time>2019-05-19T10:09:13+02:00</time>
      </trkpt>
      <trkpt lat="49.08151" lon="1.74899">
        <ele>176</ele>
        <time>2019-05-19T10:09:39+02:00</time>
      </trkpt>
      <trkpt lat="49.08144" lon="1.74866">
        <ele>173</ele>
        <time>2019-05-19T10:10:04+02:00</time>
      </trkpt>
      <trkpt lat="49.08132" lon="1.74835">
        <ele>171</ele>
        <time>2019-05-19T10:10:26+02:00</time>
      </trkpt>
      <trkpt lat="49.08117" lon="1.74809">
        <ele>168</ele>
        <time>2019-05-19T10:10:45+02:00</time>
      </trkpt>
      <trkpt lat="49.08099" lon="1.74784">
        <ele>165</ele>
        <time>2019-05-19T10:11:06+02:00</time>
      </trkpt>
      <trkpt lat="49.08081" lon="1.74762">
        <ele>163</ele>
        <time>2019-05-19T10:11:25+02:00</time>
      </trkpt>
      <trkpt lat="49.08063" lon="1.74741">
        <ele>160</ele>
        <time>2019-05-19T10:11:43+02:00</time>
      </trkpt>
      <trkpt lat="49.08047" lon="1.74717">
        <ele>156</ele>
        <time>2019-05-19T10:12:06+02:00</time>
      </trkpt>
      <trkpt lat="49.08027" lon="1.74699">
        <ele>153</ele>
        <time>2019-05-19T10:13:06+02:00</time>
      </trkpt>
      <trkpt lat="49.0801" lon="1.74677">
        <ele>150</ele>
        <time>2019-05-19T10:13:31+02:00</time>
      </trkpt>
      <trkpt lat="49.07993" lon="1.74653">
        <ele>148</ele>
        <time>2019-05-19T10:13:53+02:00</time>
      </trkpt>
      <trkpt lat="49.07976" lon="1.74628">
        <ele>147</ele>
        <time>2019-05-19T10:14:25+02:00</time>
      </trkpt>
      <trkpt lat="49.07953" lon="1.74636">
        <ele>147</ele>
        <time>2019-05-19T10:15:09+02:00</time>
      </trkpt>
      <trkpt lat="49.0794" lon="1.74607">
        <ele>146</ele>
        <time>2019-05-19T10:17:35+02:00</time>
      </trkpt>
      <trkpt lat="49.07924" lon="1.74582">
        <ele>144</ele>
        <time>2019-05-19T10:17:50+02:00</time>
      </trkpt>
      <trkpt lat="49.07904" lon="1.74564">
        <ele>144</ele>
        <time>2019-05-19T10:18:08+02:00</time>
      </trkpt>
      <trkpt lat="49.07883" lon="1.7455">
        <ele>144</ele>
        <time>2019-05-19T10:18:28+02:00</time>
      </trkpt>
      <trkpt lat="49.07861" lon="1.74537">
        <ele>143</ele>
        <time>2019-05-19T10:18:47+02:00</time>
      </trkpt>
      <trkpt lat="49.07845" lon="1.74514">
        <ele>144</ele>
        <time>2019-05-19T10:19:06+02:00</time>
      </trkpt>
      <trkpt lat="49.07836" lon="1.74481">
        <ele>145</ele>
        <time>2019-05-19T10:20:17+02:00</time>
      </trkpt>
      <trkpt lat="49.07821" lon="1.74455">
        <ele>146</ele>
        <time>2019-05-19T10:20:39+02:00</time>
      </trkpt>
      <trkpt lat="49.07804" lon="1.7443">
        <ele>146</ele>
        <time>2019-05-19T10:21:00+02:00</time>
      </trkpt>
      <trkpt lat="49.07786" lon="1.74408">
        <ele>147</ele>
        <time>2019-05-19T10:21:21+02:00</time>
      </trkpt>
      <trkpt lat="49.07765" lon="1.74394">
        <ele>147</ele>
        <time>2019-05-19T10:21:41+02:00</time>
      </trkpt>
      <trkpt lat="49.07743" lon="1.74384">
        <ele>146</ele>
        <time>2019-05-19T10:22:01+02:00</time>
      </trkpt>
      <trkpt lat="49.0772" lon="1.74376">
        <ele>146</ele>
        <time>2019-05-19T10:22:20+02:00</time>
      </trkpt>
      <trkpt lat="49.07698" lon="1.74369">
        <ele>145</ele>
        <time>2019-05-19T10:22:39+02:00</time>
      </trkpt>
      <trkpt lat="49.07686" lon="1.74338">
        <ele>146</ele>
        <time>2019-05-19T10:23:04+02:00</time>
      </trkpt>
      <trkpt lat="49.07694" lon="1.74305">
        <ele>147</ele>
        <time>2019-05-19T10:23:25+02:00</time>
      </trkpt>
      <trkpt lat="49.07699" lon="1.7427">
        <ele>147</ele>
        <time>2019-05-19T10:23:45+02:00</time>
      </trkpt>
      <trkpt lat="49.07701" lon="1.74234">
        <ele>147</ele>
        <time>2019-05-19T10:24:06+02:00</time>
      </trkpt>
      <trkpt lat="49.07695" lon="1.742">
        <ele>148</ele>
        <time>2019-05-19T10:24:24+02:00</time>
      </trkpt>
      <trkpt lat="49.07684" lon="1.74169">
        <ele>148</ele>
        <time>2019-05-19T10:24:43+02:00</time>
      </trkpt>
      <trkpt lat="49.07671" lon="1.74141">
        <ele>147</ele>
        <time>2019-05-19T10:25:00+02:00</time>
      </trkpt>
      <trkpt lat="49.07657" lon="1.74112">
        <ele>146</ele>
        <time>2019-05-19T10:25:19+02:00</time>
      </trkpt>
      <trkpt lat="49.07642" lon="1.74084">
        <ele>145</ele>
        <time>2019-05-19T10:25:36+02:00</time>
      </trkpt>
      <trkpt lat="49.07629" lon="1.74056">
        <ele>144</ele>
        <time>2019-05-19T10:25:54+02:00</time>
      </trkpt>
      <trkpt lat="49.07615" lon="1.74028">
        <ele>144</ele>
        <time>2019-05-19T10:26:12+02:00</time>
      </trkpt>
      <trkpt lat="49.07602" lon="1.73999">
        <ele>143</ele>
        <time>2019-05-19T10:26:31+02:00</time>
      </trkpt>
      <trkpt lat="49.07589" lon="1.7397">
        <ele>142</ele>
        <time>2019-05-19T10:26:51+02:00</time>
      </trkpt>
      <trkpt lat="49.07576" lon="1.73942">
        <ele>142</ele>
        <time>2019-05-19T10:27:09+02:00</time>
      </trkpt>
      <trkpt lat="49.07562" lon="1.73914">
        <ele>142</ele>
        <time>2019-05-19T10:27:27+02:00</time>
      </trkpt>
      <trkpt lat="49.07549" lon="1.73885">
        <ele>141</ele>
        <time>2019-05-19T10:27:44+02:00</time>
      </trkpt>
      <trkpt lat="49.07536" lon="1.73856">
        <ele>141</ele>
        <time>2019-05-19T10:28:02+02:00</time>
      </trkpt>
      <trkpt lat="49.07522" lon="1.73827">
        <ele>141</ele>
        <time>2019-05-19T10:28:21+02:00</time>
      </trkpt>
      <trkpt lat="49.07509" lon="1.73797">
        <ele>140</ele>
        <time>2019-05-19T10:28:40+02:00</time>
      </trkpt>
      <trkpt lat="49.07497" lon="1.73766">
        <ele>140</ele>
        <time>2019-05-19T10:29:00+02:00</time>
      </trkpt>
      <trkpt lat="49.07487" lon="1.73734">
        <ele>140</ele>
        <time>2019-05-19T10:29:18+02:00</time>
      </trkpt>
      <trkpt lat="49.07479" lon="1.73701">
        <ele>140</ele>
        <time>2019-05-19T10:29:36+02:00</time>
      </trkpt>
      <trkpt lat="49.07473" lon="1.73666">
        <ele>140</ele>
        <time>2019-05-19T10:29:55+02:00</time>
      </trkpt>
      <trkpt lat="49.07467" lon="1.73633">
        <ele>140</ele>
        <time>2019-05-19T10:30:14+02:00</time>
      </trkpt>
      <trkpt lat="49.07462" lon="1.73597">
        <ele>141</ele>
        <time>2019-05-19T10:30:33+02:00</time>
      </trkpt>
      <trkpt lat="49.07456" lon="1.73563">
        <ele>141</ele>
        <time>2019-05-19T10:30:54+02:00</time>
      </trkpt>
      <trkpt lat="49.07451" lon="1.73529">
        <ele>141</ele>
        <time>2019-05-19T10:31:13+02:00</time>
      </trkpt>
      <trkpt lat="49.07446" lon="1.73494">
        <ele>142</ele>
        <time>2019-05-19T10:31:32+02:00</time>
      </trkpt>
      <trkpt lat="49.0744" lon="1.73461">
        <ele>143</ele>
        <time>2019-05-19T10:31:51+02:00</time>
      </trkpt>
      <trkpt lat="49.07434" lon="1.73426">
        <ele>144</ele>
        <time>2019-05-19T10:32:11+02:00</time>
      </trkpt>
      <trkpt lat="49.07429" lon="1.73392">
        <ele>144</ele>
        <time>2019-05-19T10:32:40+02:00</time>
      </trkpt>
      <trkpt lat="49.07423" lon="1.73358">
        <ele>144</ele>
        <time>2019-05-19T10:32:59+02:00</time>
      </trkpt>
      <trkpt lat="49.07419" lon="1.73324">
        <ele>144</ele>
        <time>2019-05-19T10:33:19+02:00</time>
      </trkpt>
      <trkpt lat="49.07414" lon="1.73289">
        <ele>144</ele>
        <time>2019-05-19T10:33:38+02:00</time>
      </trkpt>
      <trkpt lat="49.07409" lon="1.73255">
        <ele>145</ele>
        <time>2019-05-19T10:33:57+02:00</time>
      </trkpt>
      <trkpt lat="49.07405" lon="1.73222">
        <ele>145</ele>
        <time>2019-05-19T10:34:15+02:00</time>
      </trkpt>
      <trkpt lat="49.07402" lon="1.73187">
        <ele>145</ele>
        <time>2019-05-19T10:34:39+02:00</time>
      </trkpt>
      <trkpt lat="49.07405" lon="1.73153">
        <ele>145</ele>
        <time>2019-05-19T10:34:58+02:00</time>
      </trkpt>
      <trkpt lat="49.07408" lon="1.73119">
        <ele>145</ele>
        <time>2019-05-19T10:35:17+02:00</time>
      </trkpt>
      <trkpt lat="49.07414" lon="1.73085">
        <ele>144</ele>
        <time>2019-05-19T10:35:36+02:00</time>
      </trkpt>
      <trkpt lat="49.07419" lon="1.73051">
        <ele>143</ele>
        <time>2019-05-19T10:35:54+02:00</time>
      </trkpt>
      <trkpt lat="49.07425" lon="1.73017">
        <ele>142</ele>
        <time>2019-05-19T10:36:12+02:00</time>
      </trkpt>
      <trkpt lat="49.07432" lon="1.72984">
        <ele>142</ele>
        <time>2019-05-19T10:37:20+02:00</time>
      </trkpt>
      <trkpt lat="49.07441" lon="1.7295">
        <ele>142</ele>
        <time>2019-05-19T10:37:39+02:00</time>
      </trkpt>
      <trkpt lat="49.07449" lon="1.72917">
        <ele>141</ele>
        <time>2019-05-19T10:37:57+02:00</time>
      </trkpt>
      <trkpt lat="49.07455" lon="1.72883">
        <ele>141</ele>
        <time>2019-05-19T10:38:15+02:00</time>
      </trkpt>
      <trkpt lat="49.07463" lon="1.7285">
        <ele>141</ele>
        <time>2019-05-19T10:38:45+02:00</time>
      </trkpt>
      <trkpt lat="49.07472" lon="1.72816">
        <ele>141</ele>
        <time>2019-05-19T10:39:05+02:00</time>
      </trkpt>
      <trkpt lat="49.0748" lon="1.72783">
        <ele>141</ele>
        <time>2019-05-19T10:39:23+02:00</time>
      </trkpt>
      <trkpt lat="49.07489" lon="1.72751">
        <ele>141</ele>
        <time>2019-05-19T10:39:41+02:00</time>
      </trkpt>
      <trkpt lat="49.07498" lon="1.72719">
        <ele>141</ele>
        <time>2019-05-19T10:39:59+02:00</time>
      </trkpt>
      <trkpt lat="49.07507" lon="1.72686">
        <ele>140</ele>
        <time>2019-05-19T10:40:17+02:00</time>
      </trkpt>
      <trkpt lat="49.07515" lon="1.72653">
        <ele>141</ele>
        <time>2019-05-19T10:40:36+02:00</time>
      </trkpt>
      <trkpt lat="49.07524" lon="1.72621">
        <ele>141</ele>
        <time>2019-05-19T10:40:54+02:00</time>
      </trkpt>
      <trkpt lat="49.07533" lon="1.72588">
        <ele>142</ele>
        <time>2019-05-19T10:41:13+02:00</time>
      </trkpt>
      <trkpt lat="49.07542" lon="1.72555">
        <ele>142</ele>
        <time>2019-05-19T10:41:32+02:00</time>
      </trkpt>
      <trkpt lat="49.07549" lon="1.72521">
        <ele>142</ele>
        <time>2019-05-19T10:41:50+02:00</time>
      </trkpt>
      <trkpt lat="49.07556" lon="1.72487">
        <ele>141</ele>
        <time>2019-05-19T10:42:08+02:00</time>
      </trkpt>
      <trkpt lat="49.07563" lon="1.72454">
        <ele>140</ele>
        <time>2019-05-19T10:42:26+02:00</time>
      </trkpt>
      <trkpt lat="49.0757" lon="1.72421">
        <ele>140</ele>
        <time>2019-05-19T10:42:45+02:00</time>
      </trkpt>
      <trkpt lat="49.07577" lon="1.72387">
        <ele>139</ele>
        <time>2019-05-19T10:43:02+02:00</time>
      </trkpt>
      <trkpt lat="49.07584" lon="1.72353">
        <ele>139</ele>
        <time>2019-05-19T10:43:20+02:00</time>
      </trkpt>
      <trkpt lat="49.07591" lon="1.7232">
        <ele>139</ele>
        <time>2019-05-19T10:43:37+02:00</time>
      </trkpt>
      <trkpt lat="49.07597" lon="1.72285">
        <ele>138</ele>
        <time>2019-05-19T10:43:54+02:00</time>
      </trkpt>
      <trkpt lat="49.076" lon="1.72251">
        <ele>138</ele>
        <time>2019-05-19T10:44:11+02:00</time>
      </trkpt>
      <trkpt lat="49.07602" lon="1.72217">
        <ele>137</ele>
        <time>2019-05-19T10:44:29+02:00</time>
      </trkpt>
      <trkpt lat="49.07603" lon="1.72181">
        <ele>136</ele>
        <time>2019-05-19T10:44:47+02:00</time>
      </trkpt>
      <trkpt lat="49.07601" lon="1.72146">
        <ele>134</ele>
        <time>2019-05-19T10:45:07+02:00</time>
      </trkpt>
      <trkpt lat="49.07593" lon="1.72113">
        <ele>131</ele>
        <time>2019-05-19T10:45:30+02:00</time>
      </trkpt>
      <trkpt lat="49.07576" lon="1.72086">
        <ele>129</ele>
        <time>2019-05-19T10:46:01+02:00</time>
      </trkpt>
      <trkpt lat="49.07555" lon="1.72072">
        <ele>127</ele>
        <time>2019-05-19T10:46:24+02:00</time>
      </trkpt>
      <trkpt lat="49.0754" lon="1.72043">
        <ele>123</ele>
        <time>2019-05-19T10:46:55+02:00</time>
      </trkpt>
      <trkpt lat="49.07535" lon="1.7201">
        <ele>118</ele>
        <time>2019-05-19T10:47:56+02:00</time>
      </trkpt>
      <trkpt lat="49.07544" lon="1.71977">
        <ele>113</ele>
        <time>2019-05-19T10:48:12+02:00</time>
      </trkpt>
      <trkpt lat="49.07551" lon="1.71943">
        <ele>108</ele>
        <time>2019-05-19T10:48:30+02:00</time>
      </trkpt>
      <trkpt lat="49.07558" lon="1.71909">
        <ele>104</ele>
        <time>2019-05-19T10:48:48+02:00</time>
      </trkpt>
      <trkpt lat="49.07569" lon="1.71878">
        <ele>100</ele>
        <time>2019-05-19T10:49:08+02:00</time>
      </trkpt>
      <trkpt lat="49.0758" lon="1.71848">
        <ele>97</ele>
        <time>2019-05-19T10:49:29+02:00</time>
      </trkpt>
      <trkpt lat="49.07564" lon="1.71823">
        <ele>95</ele>
        <time>2019-05-19T10:50:56+02:00</time>
      </trkpt>
      <trkpt lat="49.07552" lon="1.71792">
        <ele>94</ele>
        <time>2019-05-19T10:51:20+02:00</time>
      </trkpt>
      <trkpt lat="49.07543" lon="1.71759">
        <ele>92</ele>
        <time>2019-05-19T10:51:39+02:00</time>
      </trkpt>
      <trkpt lat="49.0753" lon="1.71731">
        <ele>92</ele>
        <time>2019-05-19T10:52:25+02:00</time>
      </trkpt>
      <trkpt lat="49.07507" lon="1.71724">
        <ele>93</ele>
        <time>2019-05-19T10:52:42+02:00</time>
      </trkpt>
      <trkpt lat="49.07484" lon="1.71723">
        <ele>92</ele>
        <time>2019-05-19T10:53:02+02:00</time>
      </trkpt>
      <trkpt lat="49.0746" lon="1.71722">
        <ele>90</ele>
        <time>2019-05-19T10:53:30+02:00</time>
      </trkpt>
      <trkpt lat="49.07436" lon="1.71716">
        <ele>89</ele>
        <time>2019-05-19T10:54:26+02:00</time>
      </trkpt>
      <trkpt lat="49.07414" lon="1.71711">
        <ele>88</ele>
        <time>2019-05-19T10:54:40+02:00</time>
      </trkpt>
      <trkpt lat="49.07391" lon="1.71708">
        <ele>87</ele>
        <time>2019-05-19T10:55:03+02:00</time>
      </trkpt>
      <trkpt lat="49.07368" lon="1.71699">
        <ele>85</ele>
        <time>2019-05-19T10:55:20+02:00</time>
      </trkpt>
      <trkpt lat="49.07346" lon="1.71689">
        <ele>83</ele>
        <time>2019-05-19T10:55:39+02:00</time>
      </trkpt>
      <trkpt lat="49.07324" lon="1.71681">
        <ele>81</ele>
        <time>2019-05-19T10:55:52+02:00</time>
      </trkpt>
      <trkpt lat="49.07302" lon="1.71677">
        <ele>80</ele>
        <time>2019-05-19T10:56:13+02:00</time>
      </trkpt>
      <trkpt lat="49.07278" lon="1.7167">
        <ele>78</ele>
        <time>2019-05-19T10:56:29+02:00</time>
      </trkpt>
      <trkpt lat="49.07256" lon="1.71659">
        <ele>78</ele>
        <time>2019-05-19T10:56:48+02:00</time>
      </trkpt>
      <trkpt lat="49.07235" lon="1.71646">
        <ele>78</ele>
        <time>2019-05-19T10:57:08+02:00</time>
      </trkpt>
      <trkpt lat="49.07219" lon="1.71621">
        <ele>81</ele>
        <time>2019-05-19T10:57:29+02:00</time>
      </trkpt>
      <trkpt lat="49.07199" lon="1.71602">
        <ele>82</ele>
        <time>2019-05-19T10:57:49+02:00</time>
      </trkpt>
      <trkpt lat="49.07176" lon="1.7161">
        <ele>80</ele>
        <time>2019-05-19T10:58:12+02:00</time>
      </trkpt>
      <trkpt lat="49.07154" lon="1.71618">
        <ele>79</ele>
        <time>2019-05-19T10:58:29+02:00</time>
      </trkpt>
      <trkpt lat="49.07131" lon="1.71628">
        <ele>77</ele>
        <time>2019-05-19T10:58:51+02:00</time>
      </trkpt>
      <trkpt lat="49.07108" lon="1.71628">
        <ele>76</ele>
        <time>2019-05-19T10:59:09+02:00</time>
      </trkpt>
      <trkpt lat="49.07085" lon="1.7163">
        <ele>75</ele>
        <time>2019-05-19T10:59:26+02:00</time>
      </trkpt>
      <trkpt lat="49.07062" lon="1.71629">
        <ele>75</ele>
        <time>2019-05-19T10:59:49+02:00</time>
      </trkpt>
      <trkpt lat="49.07039" lon="1.71632">
        <ele>74</ele>
        <time>2019-05-19T11:00:08+02:00</time>
      </trkpt>
      <trkpt lat="49.07018" lon="1.71623">
        <ele>74</ele>
        <time>2019-05-19T11:00:30+02:00</time>
      </trkpt>
      <trkpt lat="49.06994" lon="1.71618">
        <ele>74</ele>
        <time>2019-05-19T11:00:49+02:00</time>
      </trkpt>
      <trkpt lat="49.06972" lon="1.71613">
        <ele>73</ele>
        <time>2019-05-19T11:01:05+02:00</time>
      </trkpt>
      <trkpt lat="49.0695" lon="1.71601">
        <ele>73</ele>
        <time>2019-05-19T11:01:23+02:00</time>
      </trkpt>
      <trkpt lat="49.06929" lon="1.71585">
        <ele>74</ele>
        <time>2019-05-19T11:01:45+02:00</time>
      </trkpt>
      <trkpt lat="49.06908" lon="1.71569">
        <ele>74</ele>
        <time>2019-05-19T11:02:04+02:00</time>
      </trkpt>
      <trkpt lat="49.06886" lon="1.71552">
        <ele>75</ele>
        <time>2019-05-19T11:02:29+02:00</time>
      </trkpt>
      <trkpt lat="49.06866" lon="1.71539">
        <ele>75</ele>
        <time>2019-05-19T11:03:12+02:00</time>
      </trkpt>
      <trkpt lat="49.06844" lon="1.71524">
        <ele>75</ele>
        <time>2019-05-19T11:03:33+02:00</time>
      </trkpt>
      <trkpt lat="49.06824" lon="1.71506">
        <ele>75</ele>
        <time>2019-05-19T11:03:53+02:00</time>
      </trkpt>
      <trkpt lat="49.06803" lon="1.71488">
        <ele>75</ele>
        <time>2019-05-19T11:04:12+02:00</time>
      </trkpt>
      <trkpt lat="49.06783" lon="1.71471">
        <ele>74</ele>
        <time>2019-05-19T11:04:27+02:00</time>
      </trkpt>
      <trkpt lat="49.06766" lon="1.7145">
        <ele>73</ele>
        <time>2019-05-19T11:04:45+02:00</time>
      </trkpt>
      <trkpt lat="49.0675" lon="1.71425">
        <ele>73</ele>
        <time>2019-05-19T11:05:04+02:00</time>
      </trkpt>
      <trkpt lat="49.06734" lon="1.71399">
        <ele>73</ele>
        <time>2019-05-19T11:05:23+02:00</time>
      </trkpt>
      <trkpt lat="49.0672" lon="1.71371">
        <ele>73</ele>
        <time>2019-05-19T11:05:40+02:00</time>
      </trkpt>
      <trkpt lat="49.06709" lon="1.71342">
        <ele>74</ele>
        <time>2019-05-19T11:06:18+02:00</time>
      </trkpt>
      <trkpt lat="49.06697" lon="1.7131">
        <ele>74</ele>
        <time>2019-05-19T11:06:39+02:00</time>
      </trkpt>
      <trkpt lat="49.06687" lon="1.71278">
        <ele>74</ele>
        <time>2019-05-19T11:06:56+02:00</time>
      </trkpt>
      <trkpt lat="49.06679" lon="1.71244">
        <ele>74</ele>
        <time>2019-05-19T11:07:15+02:00</time>
      </trkpt>
      <trkpt lat="49.0667" lon="1.71211">
        <ele>72</ele>
        <time>2019-05-19T11:07:33+02:00</time>
      </trkpt>
      <trkpt lat="49.06663" lon="1.71177">
        <ele>71</ele>
        <time>2019-05-19T11:07:51+02:00</time>
      </trkpt>
      <trkpt lat="49.06657" lon="1.71144">
        <ele>70</ele>
        <time>2019-05-19T11:08:09+02:00</time>
      </trkpt>
      <trkpt lat="49.06651" lon="1.71109">
        <ele>70</ele>
        <time>2019-05-19T11:08:26+02:00</time>
      </trkpt>
      <trkpt lat="49.06646" lon="1.71074">
        <ele>70</ele>
        <time>2019-05-19T11:08:46+02:00</time>
      </trkpt>
      <trkpt lat="49.0664" lon="1.71041">
        <ele>69</ele>
        <time>2019-05-19T11:09:03+02:00</time>
      </trkpt>
      <trkpt lat="49.06635" lon="1.71007">
        <ele>68</ele>
        <time>2019-05-19T11:09:28+02:00</time>
      </trkpt>
      <trkpt lat="49.0663" lon="1.70972">
        <ele>67</ele>
        <time>2019-05-19T11:09:49+02:00</time>
      </trkpt>
      <trkpt lat="49.06619" lon="1.7094">
        <ele>64</ele>
        <time>2019-05-19T11:10:07+02:00</time>
      </trkpt>
      <trkpt lat="49.06611" lon="1.70907">
        <ele>62</ele>
        <time>2019-05-19T11:10:25+02:00</time>
      </trkpt>
      <trkpt lat="49.06605" lon="1.70873">
        <ele>60</ele>
        <time>2019-05-19T11:10:46+02:00</time>
      </trkpt>
      <trkpt lat="49.06598" lon="1.70838">
        <ele>58</ele>
        <time>2019-05-19T11:11:05+02:00</time>
      </trkpt>
      <trkpt lat="49.06594" lon="1.70804">
        <ele>57</ele>
        <time>2019-05-19T11:13:45+02:00</time>
      </trkpt>
      <trkpt lat="49.06589" lon="1.70771">
        <ele>55</ele>
        <time>2019-05-19T11:14:06+02:00</time>
      </trkpt>
      <trkpt lat="49.06585" lon="1.70736">
        <ele>54</ele>
        <time>2019-05-19T11:14:27+02:00</time>
      </trkpt>
      <trkpt lat="49.06579" lon="1.70703">
        <ele>52</ele>
        <time>2019-05-19T11:14:46+02:00</time>
      </trkpt>
      <trkpt lat="49.06571" lon="1.7067">
        <ele>50</ele>
        <time>2019-05-19T11:15:04+02:00</time>
      </trkpt>
      <trkpt lat="49.06578" lon="1.70636">
        <ele>50</ele>
        <time>2019-05-19T11:15:27+02:00</time>
      </trkpt>
      <trkpt lat="49.066" lon="1.7063">
        <ele>53</ele>
        <time>2019-05-19T11:15:54+02:00</time>
      </trkpt>
      <trkpt lat="49.06623" lon="1.70629">
        <ele>56</ele>
        <time>2019-05-19T11:16:25+02:00</time>
      </trkpt>
      <trkpt lat="49.06646" lon="1.7063">
        <ele>59</ele>
        <time>2019-05-19T11:16:57+02:00</time>
      </trkpt>
      <trkpt lat="49.06669" lon="1.70632">
        <ele>62</ele>
        <time>2019-05-19T11:17:26+02:00</time>
      </trkpt>
      <trkpt lat="49.06692" lon="1.70645">
        <ele>65</ele>
        <time>2019-05-19T11:18:02+02:00</time>
      </trkpt>
      <trkpt lat="49.06713" lon="1.70659">
        <ele>68</ele>
        <time>2019-05-19T11:18:29+02:00</time>
      </trkpt>
      <trkpt lat="49.06732" lon="1.70677">
        <ele>72</ele>
        <time>2019-05-19T11:19:04+02:00</time>
      </trkpt>
      <trkpt lat="49.06752" lon="1.70693">
        <ele>75</ele>
        <time>2019-05-19T11:19:34+02:00</time>
      </trkpt>
      <trkpt lat="49.06771" lon="1.70711">
        <ele>77</ele>
        <time>2019-05-19T11:20:01+02:00</time>
      </trkpt>
      <trkpt lat="49.06791" lon="1.70729">
        <ele>80</ele>
        <time>2019-05-19T11:20:34+02:00</time>
      </trkpt>
      <trkpt lat="49.0681" lon="1.70748">
        <ele>82</ele>
        <time>2019-05-19T11:21:04+02:00</time>
      </trkpt>
      <trkpt lat="49.06829" lon="1.70768">
        <ele>85</ele>
        <time>2019-05-19T11:21:29+02:00</time>
      </trkpt>
      <trkpt lat="49.06848" lon="1.70789">
        <ele>88</ele>
        <time>2019-05-19T11:22:03+02:00</time>
      </trkpt>
      <trkpt lat="49.06866" lon="1.70811">
        <ele>91</ele>
        <time>2019-05-19T11:22:29+02:00</time>
      </trkpt>
      <trkpt lat="49.06886" lon="1.70827">
        <ele>94</ele>
        <time>2019-05-19T11:23:00+02:00</time>
      </trkpt>
      <trkpt lat="49.06906" lon="1.70845">
        <ele>98</ele>
        <time>2019-05-19T11:23:26+02:00</time>
      </trkpt>
      <trkpt lat="49.06925" lon="1.70864">
        <ele>102</ele>
        <time>2019-05-19T11:23:49+02:00</time>
      </trkpt>
      <trkpt lat="49.06941" lon="1.70889">
        <ele>106</ele>
        <time>2019-05-19T11:24:27+02:00</time>
      </trkpt>
      <trkpt lat="49.0696" lon="1.70908">
        <ele>109</ele>
        <time>2019-05-19T11:24:47+02:00</time>
      </trkpt>
      <trkpt lat="49.06979" lon="1.70928">
        <ele>112</ele>
        <time>2019-05-19T11:25:09+02:00</time>
      </trkpt>
      <trkpt lat="49.06997" lon="1.70951">
        <ele>114</ele>
        <time>2019-05-19T11:25:39+02:00</time>
      </trkpt>
      <trkpt lat="49.07015" lon="1.70973">
        <ele>117</ele>
        <time>2019-05-19T11:26:09+02:00</time>
      </trkpt>
      <trkpt lat="49.07036" lon="1.70987">
        <ele>119</ele>
        <time>2019-05-19T11:28:23+02:00</time>
      </trkpt>
      <trkpt lat="49.07056" lon="1.71003">
        <ele>121</ele>
        <time>2019-05-19T11:28:57+02:00</time>
      </trkpt>
      <trkpt lat="49.0707" lon="1.71031">
        <ele>122</ele>
        <time>2019-05-19T11:29:30+02:00</time>
      </trkpt>
      <trkpt lat="49.07087" lon="1.71055">
        <ele>122</ele>
        <time>2019-05-19T11:29:56+02:00</time>
      </trkpt>
      <trkpt lat="49.07106" lon="1.71072">
        <ele>123</ele>
        <time>2019-05-19T11:31:26+02:00</time>
      </trkpt>
      <trkpt lat="49.07128" lon="1.71081">
        <ele>124</ele>
        <time>2019-05-19T11:31:57+02:00</time>
      </trkpt>
      <trkpt lat="49.07149" lon="1.71094">
        <ele>124</ele>
        <time>2019-05-19T11:32:28+02:00</time>
      </trkpt>
      <trkpt lat="49.0717" lon="1.71109">
        <ele>125</ele>
        <time>2019-05-19T11:37:34+02:00</time>
      </trkpt>
      <trkpt lat="49.07193" lon="1.71118">
        <ele>125</ele>
        <time>2019-05-19T11:37:54+02:00</time>
      </trkpt>
      <trkpt lat="49.07214" lon="1.7113">
        <ele>126</ele>
        <time>2019-05-19T11:38:55+02:00</time>
      </trkpt>
      <trkpt lat="49.07237" lon="1.71142">
        <ele>126</ele>
        <time>2019-05-19T11:39:13+02:00</time>
      </trkpt>
      <trkpt lat="49.07258" lon="1.71155">
        <ele>126</ele>
        <time>2019-05-19T11:39:31+02:00</time>
      </trkpt>
      <trkpt lat="49.0728" lon="1.71164">
        <ele>127</ele>
        <time>2019-05-19T11:39:49+02:00</time>
      </trkpt>
      <trkpt lat="49.07302" lon="1.71177">
        <ele>128</ele>
        <time>2019-05-19T11:40:06+02:00</time>
      </trkpt>
      <trkpt lat="49.07324" lon="1.71184">
        <ele>130</ele>
        <time>2019-05-19T11:40:23+02:00</time>
      </trkpt>
      <trkpt lat="49.07346" lon="1.71195">
        <ele>130</ele>
        <time>2019-05-19T11:40:40+02:00</time>
      </trkpt>
      <trkpt lat="49.07368" lon="1.71207">
        <ele>130</ele>
        <time>2019-05-19T11:41:02+02:00</time>
      </trkpt>
      <trkpt lat="49.0739" lon="1.71218">
        <ele>130</ele>
        <time>2019-05-19T11:41:25+02:00</time>
      </trkpt>
      <trkpt lat="49.07411" lon="1.71231">
        <ele>130</ele>
        <time>2019-05-19T11:41:40+02:00</time>
      </trkpt>
      <trkpt lat="49.07432" lon="1.71245">
        <ele>130</ele>
        <time>2019-05-19T11:42:00+02:00</time>
      </trkpt>
      <trkpt lat="49.07454" lon="1.71256">
        <ele>131</ele>
        <time>2019-05-19T11:42:26+02:00</time>
      </trkpt>
      <trkpt lat="49.07476" lon="1.71269">
        <ele>131</ele>
        <time>2019-05-19T11:42:49+02:00</time>
      </trkpt>
      <trkpt lat="49.07497" lon="1.71281">
        <ele>131</ele>
        <time>2019-05-19T11:43:05+02:00</time>
      </trkpt>
      <trkpt lat="49.0752" lon="1.71289">
        <ele>131</ele>
        <time>2019-05-19T11:43:28+02:00</time>
      </trkpt>
      <trkpt lat="49.07542" lon="1.71299">
        <ele>132</ele>
        <time>2019-05-19T11:43:49+02:00</time>
      </trkpt>
      <trkpt lat="49.07563" lon="1.71313">
        <ele>132</ele>
        <time>2019-05-19T11:44:04+02:00</time>
      </trkpt>
      <trkpt lat="49.07585" lon="1.7132">
        <ele>134</ele>
        <time>2019-05-19T11:44:24+02:00</time>
      </trkpt>
      <trkpt lat="49.07608" lon="1.71331">
        <ele>134</ele>
        <time>2019-05-19T11:44:49+02:00</time>
      </trkpt>
      <trkpt lat="49.0763" lon="1.71342">
        <ele>133</ele>
        <time>2019-05-19T11:45:10+02:00</time>
      </trkpt>
      <trkpt lat="49.07652" lon="1.7135">
        <ele>133</ele>
        <time>2019-05-19T11:45:30+02:00</time>
      </trkpt>
      <trkpt lat="49.07674" lon="1.7136">
        <ele>134</ele>
        <time>2019-05-19T11:45:49+02:00</time>
      </trkpt>
      <trkpt lat="49.07696" lon="1.71369">
        <ele>135</ele>
        <time>2019-05-19T11:46:09+02:00</time>
      </trkpt>
      <trkpt lat="49.07718" lon="1.71378">
        <ele>135</ele>
        <time>2019-05-19T11:46:30+02:00</time>
      </trkpt>
      <trkpt lat="49.07741" lon="1.71387">
        <ele>136</ele>
        <time>2019-05-19T11:46:50+02:00</time>
      </trkpt>
      <trkpt lat="49.07763" lon="1.714">
        <ele>137</ele>
        <time>2019-05-19T11:47:10+02:00</time>
      </trkpt>
      <trkpt lat="49.07785" lon="1.71412">
        <ele>137</ele>
        <time>2019-05-19T11:47:29+02:00</time>
      </trkpt>
      <trkpt lat="49.07807" lon="1.71421">
        <ele>137</ele>
        <time>2019-05-19T11:47:49+02:00</time>
      </trkpt>
      <trkpt lat="49.07829" lon="1.7143">
        <ele>138</ele>
        <time>2019-05-19T11:48:09+02:00</time>
      </trkpt>
      <trkpt lat="49.07851" lon="1.71442">
        <ele>138</ele>
        <time>2019-05-19T11:48:29+02:00</time>
      </trkpt>
      <trkpt lat="49.07873" lon="1.71452">
        <ele>138</ele>
        <time>2019-05-19T11:48:49+02:00</time>
      </trkpt>
      <trkpt lat="49.07896" lon="1.7146">
        <ele>139</ele>
        <time>2019-05-19T11:49:11+02:00</time>
      </trkpt>
      <trkpt lat="49.07919" lon="1.71466">
        <ele>139</ele>
        <time>2019-05-19T11:49:29+02:00</time>
      </trkpt>
      <trkpt lat="49.07942" lon="1.71471">
        <ele>140</ele>
        <time>2019-05-19T11:49:48+02:00</time>
      </trkpt>
      <trkpt lat="49.07965" lon="1.71474">
        <ele>140</ele>
        <time>2019-05-19T11:50:07+02:00</time>
      </trkpt>
      <trkpt lat="49.07987" lon="1.71483">
        <ele>140</ele>
        <time>2019-05-19T11:50:27+02:00</time>
      </trkpt>
      <trkpt lat="49.08007" lon="1.71499">
        <ele>140</ele>
        <time>2019-05-19T11:50:47+02:00</time>
      </trkpt>
      <trkpt lat="49.08027" lon="1.71518">
        <ele>140</ele>
        <time>2019-05-19T11:51:06+02:00</time>
      </trkpt>
      <trkpt lat="49.08044" lon="1.71541">
        <ele>140</ele>
        <time>2019-05-19T11:51:28+02:00</time>
      </trkpt>
      <trkpt lat="49.08063" lon="1.71561">
        <ele>140</ele>
        <time>2019-05-19T11:51:47+02:00</time>
      </trkpt>
      <trkpt lat="49.08082" lon="1.71582">
        <ele>140</ele>
        <time>2019-05-19T11:52:09+02:00</time>
      </trkpt>
      <trkpt lat="49.08101" lon="1.71601">
        <ele>141</ele>
        <time>2019-05-19T11:52:27+02:00</time>
      </trkpt>
      <trkpt lat="49.0812" lon="1.7162">
        <ele>141</ele>
        <time>2019-05-19T11:52:46+02:00</time>
      </trkpt>
      <trkpt lat="49.08137" lon="1.71642">
        <ele>142</ele>
        <time>2019-05-19T11:53:05+02:00</time>
      </trkpt>
      <trkpt lat="49.08155" lon="1.71664">
        <ele>142</ele>
        <time>2019-05-19T11:53:21+02:00</time>
      </trkpt>
      <trkpt lat="49.08172" lon="1.71687">
        <ele>141</ele>
        <time>2019-05-19T11:53:45+02:00</time>
      </trkpt>
      <trkpt lat="49.08187" lon="1.71713">
        <ele>141</ele>
        <time>2019-05-19T11:54:37+02:00</time>
      </trkpt>
      <trkpt lat="49.08205" lon="1.71738">
        <ele>141</ele>
        <time>2019-05-19T11:54:58+02:00</time>
      </trkpt>
      <trkpt lat="49.08222" lon="1.71761">
        <ele>141</ele>
        <time>2019-05-19T11:55:16+02:00</time>
      </trkpt>
      <trkpt lat="49.08241" lon="1.71782">
        <ele>142</ele>
        <time>2019-05-19T11:55:36+02:00</time>
      </trkpt>
      <trkpt lat="49.0826" lon="1.71801">
        <ele>142</ele>
        <time>2019-05-19T11:56:03+02:00</time>
      </trkpt>
      <trkpt lat="49.08279" lon="1.71819">
        <ele>143</ele>
        <time>2019-05-19T11:56:23+02:00</time>
      </trkpt>
      <trkpt lat="49.083" lon="1.71835">
        <ele>144</ele>
        <time>2019-05-19T11:56:43+02:00</time>
      </trkpt>
      <trkpt lat="49.08321" lon="1.71851">
        <ele>145</ele>
        <time>2019-05-19T11:57:02+02:00</time>
      </trkpt>
      <trkpt lat="49.08342" lon="1.71867">
        <ele>145</ele>
        <time>2019-05-19T11:57:20+02:00</time>
      </trkpt>
      <trkpt lat="49.08362" lon="1.71883">
        <ele>145</ele>
        <time>2019-05-19T11:57:40+02:00</time>
      </trkpt>
      <trkpt lat="49.08382" lon="1.71901">
        <ele>146</ele>
        <time>2019-05-19T11:58:04+02:00</time>
      </trkpt>
      <trkpt lat="49.08402" lon="1.7192">
        <ele>146</ele>
        <time>2019-05-19T11:58:24+02:00</time>
      </trkpt>
      <trkpt lat="49.0842" lon="1.7194">
        <ele>147</ele>
        <time>2019-05-19T11:58:44+02:00</time>
      </trkpt>
      <trkpt lat="49.08439" lon="1.71962">
        <ele>147</ele>
        <time>2019-05-19T11:59:01+02:00</time>
      </trkpt>
      <trkpt lat="49.08457" lon="1.71984">
        <ele>147</ele>
        <time>2019-05-19T11:59:21+02:00</time>
      </trkpt>
      <trkpt lat="49.08474" lon="1.72006">
        <ele>147</ele>
        <time>2019-05-19T11:59:42+02:00</time>
      </trkpt>
      <trkpt lat="49.08493" lon="1.72024">
        <ele>146</ele>
        <time>2019-05-19T12:00:01+02:00</time>
      </trkpt>
      <trkpt lat="49.08515" lon="1.72038">
        <ele>146</ele>
        <time>2019-05-19T12:00:20+02:00</time>
      </trkpt>
      <trkpt lat="49.08536" lon="1.72051">
        <ele>146</ele>
        <time>2019-05-19T12:00:39+02:00</time>
      </trkpt>
      <trkpt lat="49.08558" lon="1.72061">
        <ele>146</ele>
        <time>2019-05-19T12:01:29+02:00</time>
      </trkpt>
      <trkpt lat="49.0858" lon="1.72068">
        <ele>146</ele>
        <time>2019-05-19T12:01:47+02:00</time>
      </trkpt>
      <trkpt lat="49.08602" lon="1.72075">
        <ele>147</ele>
        <time>2019-05-19T12:02:09+02:00</time>
      </trkpt>
      <trkpt lat="49.08624" lon="1.72086">
        <ele>147</ele>
        <time>2019-05-19T12:02:27+02:00</time>
      </trkpt>
      <trkpt lat="49.08644" lon="1.72103">
        <ele>147</ele>
        <time>2019-05-19T12:02:47+02:00</time>
      </trkpt>
      <trkpt lat="49.08667" lon="1.72111">
        <ele>148</ele>
        <time>2019-05-19T12:03:08+02:00</time>
      </trkpt>
      <trkpt lat="49.0869" lon="1.72115">
        <ele>148</ele>
        <time>2019-05-19T12:03:28+02:00</time>
      </trkpt>
      <trkpt lat="49.08712" lon="1.72122">
        <ele>148</ele>
        <time>2019-05-19T12:03:44+02:00</time>
      </trkpt>
      <trkpt lat="49.08735" lon="1.72126">
        <ele>148</ele>
        <time>2019-05-19T12:04:03+02:00</time>
      </trkpt>
      <trkpt lat="49.08758" lon="1.72134">
        <ele>149</ele>
        <time>2019-05-19T12:04:24+02:00</time>
      </trkpt>
      <trkpt lat="49.0878" lon="1.72142">
        <ele>150</ele>
        <time>2019-05-19T12:04:41+02:00</time>
      </trkpt>
      <trkpt lat="49.088" lon="1.72158">
        <ele>151</ele>
        <time>2019-05-19T12:05:02+02:00</time>
      </trkpt>
      <trkpt lat="49.08822" lon="1.72167">
        <ele>151</ele>
        <time>2019-05-19T12:05:40+02:00</time>
      </trkpt>
      <trkpt lat="49.08842" lon="1.72186">
        <ele>153</ele>
        <time>2019-05-19T12:29:40+02:00</time>
      </trkpt>
      <trkpt lat="49.08861" lon="1.72205">
        <ele>154</ele>
        <time>2019-05-19T12:30:01+02:00</time>
      </trkpt>
      <trkpt lat="49.0888" lon="1.72226">
        <ele>155</ele>
        <time>2019-05-19T12:30:24+02:00</time>
      </trkpt>
      <trkpt lat="49.08897" lon="1.7225">
        <ele>156</ele>
        <time>2019-05-19T12:30:52+02:00</time>
      </trkpt>
      <trkpt lat="49.08912" lon="1.72275">
        <ele>157</ele>
        <time>2019-05-19T12:31:11+02:00</time>
      </trkpt>
      <trkpt lat="49.0893" lon="1.72295">
        <ele>158</ele>
        <time>2019-05-19T12:31:36+02:00</time>
      </trkpt>
      <trkpt lat="49.0895" lon="1.72312">
        <ele>159</ele>
        <time>2019-05-19T12:31:58+02:00</time>
      </trkpt>
      <trkpt lat="49.08972" lon="1.72306">
        <ele>161</ele>
        <time>2019-05-19T12:32:41+02:00</time>
      </trkpt>
      <trkpt lat="49.08991" lon="1.72284">
        <ele>164</ele>
        <time>2019-05-19T12:33:05+02:00</time>
      </trkpt>
      <trkpt lat="49.0901" lon="1.72267">
        <ele>167</ele>
        <time>2019-05-19T12:33:31+02:00</time>
      </trkpt>
      <trkpt lat="49.09029" lon="1.72249">
        <ele>171</ele>
        <time>2019-05-19T12:33:48+02:00</time>
      </trkpt>
      <trkpt lat="49.09047" lon="1.72227">
        <ele>174</ele>
        <time>2019-05-19T12:34:09+02:00</time>
      </trkpt>
      <trkpt lat="49.09067" lon="1.72208">
        <ele>176</ele>
        <time>2019-05-19T12:34:31+02:00</time>
      </trkpt>
      <trkpt lat="49.09084" lon="1.72184">
        <ele>178</ele>
        <time>2019-05-19T12:35:02+02:00</time>
      </trkpt>
      <trkpt lat="49.09097" lon="1.72155">
        <ele>182</ele>
        <time>2019-05-19T12:36:29+02:00</time>
      </trkpt>
      <trkpt lat="49.091" lon="1.72121">
        <ele>184</ele>
        <time>2019-05-19T12:36:51+02:00</time>
      </trkpt>
      <trkpt lat="49.09115" lon="1.72093">
        <ele>189</ele>
        <time>2019-05-19T12:37:17+02:00</time>
      </trkpt>
      <trkpt lat="49.09131" lon="1.7207">
        <ele>194</ele>
        <time>2019-05-19T12:37:44+02:00</time>
      </trkpt>
      <trkpt lat="49.09145" lon="1.72042">
        <ele>199</ele>
        <time>2019-05-19T12:38:12+02:00</time>
      </trkpt>
      <trkpt lat="49.09157" lon="1.72013">
        <ele>203</ele>
        <time>2019-05-19T12:38:33+02:00</time>
      </trkpt>
      <trkpt lat="49.09169" lon="1.71979">
        <ele>206</ele>
        <time>2019-05-19T12:38:56+02:00</time>
      </trkpt>
      <trkpt lat="49.09181" lon="1.7195">
        <ele>206</ele>
        <time>2019-05-19T12:39:18+02:00</time>
      </trkpt>
      <trkpt lat="49.09195" lon="1.71921">
        <ele>207</ele>
        <time>2019-05-19T12:39:39+02:00</time>
      </trkpt>
      <trkpt lat="49.09208" lon="1.71894">
        <ele>207</ele>
        <time>2019-05-19T12:40:32+02:00</time>
      </trkpt>
      <trkpt lat="49.0922" lon="1.71864">
        <ele>207</ele>
        <time>2019-05-19T12:40:53+02:00</time>
      </trkpt>
      <trkpt lat="49.09232" lon="1.71835">
        <ele>207</ele>
        <time>2019-05-19T12:41:12+02:00</time>
      </trkpt>
      <trkpt lat="49.09244" lon="1.71804">
        <ele>207</ele>
        <time>2019-05-19T12:41:35+02:00</time>
      </trkpt>
      <trkpt lat="49.0926" lon="1.71777">
        <ele>206</ele>
        <time>2019-05-19T12:41:57+02:00</time>
      </trkpt>
      <trkpt lat="49.09276" lon="1.71752">
        <ele>206</ele>
        <time>2019-05-19T12:42:17+02:00</time>
      </trkpt>
      <trkpt lat="49.09295" lon="1.71733">
        <ele>205</ele>
        <time>2019-05-19T12:42:36+02:00</time>
      </trkpt>
      <trkpt lat="49.09313" lon="1.71711">
        <ele>205</ele>
        <time>2019-05-19T12:42:55+02:00</time>
      </trkpt>
      <trkpt lat="49.0933" lon="1.71686">
        <ele>205</ele>
        <time>2019-05-19T12:43:16+02:00</time>
      </trkpt>
      <trkpt lat="49.09345" lon="1.7166">
        <ele>205</ele>
        <time>2019-05-19T12:43:36+02:00</time>
      </trkpt>
      <trkpt lat="49.09361" lon="1.71633">
        <ele>206</ele>
        <time>2019-05-19T12:43:58+02:00</time>
      </trkpt>
      <trkpt lat="49.09376" lon="1.71606">
        <ele>207</ele>
        <time>2019-05-19T12:44:15+02:00</time>
      </trkpt>
      <trkpt lat="49.09392" lon="1.71581">
        <ele>207</ele>
        <time>2019-05-19T12:44:35+02:00</time>
      </trkpt>
      <trkpt lat="49.09407" lon="1.71555">
        <ele>208</ele>
        <time>2019-05-19T12:44:54+02:00</time>
      </trkpt>
      <trkpt lat="49.09421" lon="1.71528">
        <ele>208</ele>
        <time>2019-05-19T12:45:12+02:00</time>
      </trkpt>
      <trkpt lat="49.09437" lon="1.71504">
        <ele>208</ele>
        <time>2019-05-19T12:45:32+02:00</time>
      </trkpt>
      <trkpt lat="49.09452" lon="1.71478">
        <ele>208</ele>
        <time>2019-05-19T12:45:51+02:00</time>
      </trkpt>
      <trkpt lat="49.0947" lon="1.71457">
        <ele>208</ele>
        <time>2019-05-19T12:46:12+02:00</time>
      </trkpt>
      <trkpt lat="49.09489" lon="1.71439">
        <ele>209</ele>
        <time>2019-05-19T12:46:31+02:00</time>
      </trkpt>
      <trkpt lat="49.09509" lon="1.71423">
        <ele>210</ele>
        <time>2019-05-19T12:46:56+02:00</time>
      </trkpt>
      <trkpt lat="49.09528" lon="1.71401">
        <ele>210</ele>
        <time>2019-05-19T12:47:24+02:00</time>
      </trkpt>
      <trkpt lat="49.09551" lon="1.71399">
        <ele>209</ele>
        <time>2019-05-19T12:47:51+02:00</time>
      </trkpt>
      <trkpt lat="49.09574" lon="1.71398">
        <ele>209</ele>
        <time>2019-05-19T12:48:13+02:00</time>
      </trkpt>
      <trkpt lat="49.09597" lon="1.71393">
        <ele>209</ele>
        <time>2019-05-19T12:48:34+02:00</time>
      </trkpt>
      <trkpt lat="49.09619" lon="1.71386">
        <ele>209</ele>
        <time>2019-05-19T12:48:58+02:00</time>
      </trkpt>
      <trkpt lat="49.09641" lon="1.71383">
        <ele>208</ele>
        <time>2019-05-19T12:49:17+02:00</time>
      </trkpt>
      <trkpt lat="49.09664" lon="1.71376">
        <ele>208</ele>
        <time>2019-05-19T12:49:36+02:00</time>
      </trkpt>
      <trkpt lat="49.09686" lon="1.71369">
        <ele>207</ele>
        <time>2019-05-19T12:49:56+02:00</time>
      </trkpt>
      <trkpt lat="49.09708" lon="1.71356">
        <ele>206</ele>
        <time>2019-05-19T12:50:15+02:00</time>
      </trkpt>
      <trkpt lat="49.0973" lon="1.71362">
        <ele>207</ele>
        <time>2019-05-19T12:50:38+02:00</time>
      </trkpt>
      <trkpt lat="49.09752" lon="1.71348">
        <ele>206</ele>
        <time>2019-05-19T12:50:59+02:00</time>
      </trkpt>
      <trkpt lat="49.09773" lon="1.71332">
        <ele>207</ele>
        <time>2019-05-19T12:51:18+02:00</time>
      </trkpt>
      <trkpt lat="49.09792" lon="1.71309">
        <ele>208</ele>
        <time>2019-05-19T12:51:39+02:00</time>
      </trkpt>
      <trkpt lat="49.09812" lon="1.71294">
        <ele>208</ele>
        <time>2019-05-19T12:51:59+02:00</time>
      </trkpt>
      <trkpt lat="49.09834" lon="1.71278">
        <ele>209</ele>
        <time>2019-05-19T12:52:21+02:00</time>
      </trkpt>
      <trkpt lat="49.09856" lon="1.71278">
        <ele>208</ele>
        <time>2019-05-19T12:52:42+02:00</time>
      </trkpt>
      <trkpt lat="49.09871" lon="1.71305">
        <ele>208</ele>
        <time>2019-05-19T12:53:01+02:00</time>
      </trkpt>
      <trkpt lat="49.0989" lon="1.71325">
        <ele>206</ele>
        <time>2019-05-19T12:53:22+02:00</time>
      </trkpt>
      <trkpt lat="49.09911" lon="1.71337">
        <ele>205</ele>
        <time>2019-05-19T12:53:41+02:00</time>
      </trkpt>
      <trkpt lat="49.09933" lon="1.71348">
        <ele>203</ele>
        <time>2019-05-19T12:54:11+02:00</time>
      </trkpt>
      <trkpt lat="49.09955" lon="1.71353">
        <ele>201</ele>
        <time>2019-05-19T12:54:34+02:00</time>
      </trkpt>
      <trkpt lat="49.09978" lon="1.71358">
        <ele>198</ele>
        <time>2019-05-19T12:54:58+02:00</time>
      </trkpt>
      <trkpt lat="49.10002" lon="1.71355">
        <ele>195</ele>
        <time>2019-05-19T12:55:21+02:00</time>
      </trkpt>
      <trkpt lat="49.10026" lon="1.71353">
        <ele>193</ele>
        <time>2019-05-19T12:55:43+02:00</time>
      </trkpt>
      <trkpt lat="49.10049" lon="1.71346">
        <ele>190</ele>
        <time>2019-05-19T12:56:07+02:00</time>
      </trkpt>
      <trkpt lat="49.1007" lon="1.71357">
        <ele>187</ele>
        <time>2019-05-19T12:56:26+02:00</time>
      </trkpt>
      <trkpt lat="49.10089" lon="1.71378">
        <ele>184</ele>
        <time>2019-05-19T12:56:43+02:00</time>
      </trkpt>
      <trkpt lat="49.10107" lon="1.71401">
        <ele>181</ele>
        <time>2019-05-19T12:57:02+02:00</time>
      </trkpt>
      <trkpt lat="49.10119" lon="1.7143">
        <ele>178</ele>
        <time>2019-05-19T12:58:08+02:00</time>
      </trkpt>
      <trkpt lat="49.10134" lon="1.71457">
        <ele>175</ele>
        <time>2019-05-19T12:58:30+02:00</time>
      </trkpt>
      <trkpt lat="49.10147" lon="1.71485">
        <ele>172</ele>
        <time>2019-05-19T12:58:51+02:00</time>
      </trkpt>
      <trkpt lat="49.10165" lon="1.71507">
        <ele>169</ele>
        <time>2019-05-19T12:59:10+02:00</time>
      </trkpt>
      <trkpt lat="49.10184" lon="1.71526">
        <ele>168</ele>
        <time>2019-05-19T12:59:29+02:00</time>
      </trkpt>
      <trkpt lat="49.10205" lon="1.71543">
        <ele>166</ele>
        <time>2019-05-19T12:59:59+02:00</time>
      </trkpt>
      <trkpt lat="49.10226" lon="1.71557">
        <ele>164</ele>
        <time>2019-05-19T13:00:26+02:00</time>
      </trkpt>
      <trkpt lat="49.10246" lon="1.71575">
        <ele>162</ele>
        <time>2019-05-19T13:00:58+02:00</time>
      </trkpt>
      <trkpt lat="49.10269" lon="1.71583">
        <ele>161</ele>
        <time>2019-05-19T13:01:19+02:00</time>
      </trkpt>
      <trkpt lat="49.10292" lon="1.71586">
        <ele>159</ele>
        <time>2019-05-19T13:01:38+02:00</time>
      </trkpt>
      <trkpt lat="49.10314" lon="1.7158">
        <ele>157</ele>
        <time>2019-05-19T13:01:58+02:00</time>
      </trkpt>
      <trkpt lat="49.10337" lon="1.7158">
        <ele>156</ele>
        <time>2019-05-19T13:02:17+02:00</time>
      </trkpt>
      <trkpt lat="49.10361" lon="1.71581">
        <ele>154</ele>
        <time>2019-05-19T13:02:34+02:00</time>
      </trkpt>
      <trkpt lat="49.10383" lon="1.71581">
        <ele>153</ele>
        <time>2019-05-19T13:02:53+02:00</time>
      </trkpt>
      <trkpt lat="49.10407" lon="1.71579">
        <ele>151</ele>
        <time>2019-05-19T13:03:12+02:00</time>
      </trkpt>
      <trkpt lat="49.10429" lon="1.71576">
        <ele>150</ele>
        <time>2019-05-19T13:03:29+02:00</time>
      </trkpt>
      <trkpt lat="49.10452" lon="1.71572">
        <ele>150</ele>
        <time>2019-05-19T13:03:48+02:00</time>
      </trkpt>
      <trkpt lat="49.10475" lon="1.71571">
        <ele>149</ele>
        <time>2019-05-19T13:04:08+02:00</time>
      </trkpt>
      <trkpt lat="49.10497" lon="1.71579">
        <ele>149</ele>
        <time>2019-05-19T13:04:26+02:00</time>
      </trkpt>
      <trkpt lat="49.10519" lon="1.71591">
        <ele>148</ele>
        <time>2019-05-19T13:04:45+02:00</time>
      </trkpt>
      <trkpt lat="49.1054" lon="1.71605">
        <ele>146</ele>
        <time>2019-05-19T13:05:03+02:00</time>
      </trkpt>
      <trkpt lat="49.10561" lon="1.7162">
        <ele>145</ele>
        <time>2019-05-19T13:05:23+02:00</time>
      </trkpt>
      <trkpt lat="49.10582" lon="1.71636">
        <ele>143</ele>
        <time>2019-05-19T13:05:42+02:00</time>
      </trkpt>
      <trkpt lat="49.10598" lon="1.71661">
        <ele>143</ele>
        <time>2019-05-19T13:06:02+02:00</time>
      </trkpt>
      <trkpt lat="49.10612" lon="1.71689">
        <ele>142</ele>
        <time>2019-05-19T13:06:23+02:00</time>
      </trkpt>
      <trkpt lat="49.10628" lon="1.71714">
        <ele>142</ele>
        <time>2019-05-19T13:06:42+02:00</time>
      </trkpt>
      <trkpt lat="49.10644" lon="1.7174">
        <ele>142</ele>
        <time>2019-05-19T13:07:01+02:00</time>
      </trkpt>
      <trkpt lat="49.1066" lon="1.71766">
        <ele>141</ele>
        <time>2019-05-19T13:07:21+02:00</time>
      </trkpt>
      <trkpt lat="49.10675" lon="1.71791">
        <ele>140</ele>
        <time>2019-05-19T13:07:41+02:00</time>
      </trkpt>
      <trkpt lat="49.10691" lon="1.71819">
        <ele>140</ele>
        <time>2019-05-19T13:08:05+02:00</time>
      </trkpt>
      <trkpt lat="49.1071" lon="1.7184">
        <ele>139</ele>
        <time>2019-05-19T13:08:34+02:00</time>
      </trkpt>
      <trkpt lat="49.10726" lon="1.71864">
        <ele>139</ele>
        <time>2019-05-19T13:09:43+02:00</time>
      </trkpt>
      <trkpt lat="49.10735" lon="1.71896">
        <ele>138</ele>
        <time>2019-05-19T13:10:03+02:00</time>
      </trkpt>
      <trkpt lat="49.1075" lon="1.71923">
        <ele>137</ele>
        <time>2019-05-19T13:10:22+02:00</time>
      </trkpt>
      <trkpt lat="49.10769" lon="1.71945">
        <ele>137</ele>
        <time>2019-05-19T13:10:42+02:00</time>
      </trkpt>
      <trkpt lat="49.10779" lon="1.71977">
        <ele>136</ele>
        <time>2019-05-19T13:11:00+02:00</time>
      </trkpt>
      <trkpt lat="49.10795" lon="1.72002">
        <ele>134</ele>
        <time>2019-05-19T13:11:19+02:00</time>
      </trkpt>
      <trkpt lat="49.10811" lon="1.72027">
        <ele>132</ele>
        <time>2019-05-19T13:11:38+02:00</time>
      </trkpt>
      <trkpt lat="49.10827" lon="1.72053">
        <ele>130</ele>
        <time>2019-05-19T13:11:59+02:00</time>
      </trkpt>
      <trkpt lat="49.10844" lon="1.72075">
        <ele>129</ele>
        <time>2019-05-19T13:12:18+02:00</time>
      </trkpt>
      <trkpt lat="49.10864" lon="1.72094">
        <ele>129</ele>
        <time>2019-05-19T13:12:38+02:00</time>
      </trkpt>
      <trkpt lat="49.10882" lon="1.72116">
        <ele>128</ele>
        <time>2019-05-19T13:12:56+02:00</time>
      </trkpt>
      <trkpt lat="49.10902" lon="1.72134">
        <ele>127</ele>
        <time>2019-05-19T13:13:14+02:00</time>
      </trkpt>
      <trkpt lat="49.10923" lon="1.72146">
        <ele>125</ele>
        <time>2019-05-19T13:13:35+02:00</time>
      </trkpt>
      <trkpt lat="49.10946" lon="1.72155">
        <ele>123</ele>
        <time>2019-05-19T13:13:53+02:00</time>
      </trkpt>
      <trkpt lat="49.10968" lon="1.72164">
        <ele>120</ele>
        <time>2019-05-19T13:14:18+02:00</time>
      </trkpt>
      <trkpt lat="49.10966" lon="1.722">
        <ele>120</ele>
        <time>2019-05-19T13:16:17+02:00</time>
      </trkpt>
      <trkpt lat="49.10971" lon="1.72235">
        <ele>120</ele>
        <time>2019-05-19T13:16:58+02:00</time>
      </trkpt>
      <trkpt lat="49.10965" lon="1.72269">
        <ele>121</ele>
        <time>2019-05-19T13:17:19+02:00</time>
      </trkpt>
      <trkpt lat="49.10953" lon="1.72298">
        <ele>122</ele>
        <time>2019-05-19T13:17:47+02:00</time>
      </trkpt>
      <trkpt lat="49.10937" lon="1.72323">
        <ele>123</ele>
        <time>2019-05-19T13:18:08+02:00</time>
      </trkpt>
      <trkpt lat="49.10927" lon="1.72355">
        <ele>124</ele>
        <time>2019-05-19T13:24:57+02:00</time>
      </trkpt>
      <trkpt lat="49.10926" lon="1.72389">
        <ele>123</ele>
        <time>2019-05-19T13:25:18+02:00</time>
      </trkpt>
      <trkpt lat="49.10917" lon="1.72422">
        <ele>123</ele>
        <time>2019-05-19T13:26:28+02:00</time>
      </trkpt>
      <trkpt lat="49.1094" lon="1.72419">
        <ele>124</ele>
        <time>2019-05-19T13:27:45+02:00</time>
      </trkpt>
      <trkpt lat="49.1096" lon="1.72434">
        <ele>124</ele>
        <time>2019-05-19T13:28:13+02:00</time>
      </trkpt>
      <trkpt lat="49.10977" lon="1.72459">
        <ele>126</ele>
        <time>2019-05-19T13:28:54+02:00</time>
      </trkpt>
      <trkpt lat="49.10996" lon="1.72478">
        <ele>127</ele>
        <time>2019-05-19T13:29:22+02:00</time>
      </trkpt>
      <trkpt lat="49.11016" lon="1.72495">
        <ele>129</ele>
        <time>2019-05-19T13:30:13+02:00</time>
      </trkpt>
      <trkpt lat="49.11034" lon="1.72518">
        <ele>130</ele>
        <time>2019-05-19T13:30:36+02:00</time>
      </trkpt>
      <trkpt lat="49.11053" lon="1.72539">
        <ele>132</ele>
        <time>2019-05-19T13:30:58+02:00</time>
      </trkpt>
      <trkpt lat="49.11071" lon="1.72558">
        <ele>134</ele>
        <time>2019-05-19T13:31:21+02:00</time>
      </trkpt>
      <trkpt lat="49.11091" lon="1.72577">
        <ele>136</ele>
        <time>2019-05-19T13:31:43+02:00</time>
      </trkpt>
      <trkpt lat="49.11109" lon="1.72599">
        <ele>137</ele>
        <time>2019-05-19T13:32:05+02:00</time>
      </trkpt>
      <trkpt lat="49.11127" lon="1.7262">
        <ele>138</ele>
        <time>2019-05-19T13:32:22+02:00</time>
      </trkpt>
      <trkpt lat="49.11147" lon="1.72637">
        <ele>139</ele>
        <time>2019-05-19T13:32:44+02:00</time>
      </trkpt>
      <trkpt lat="49.11164" lon="1.72659">
        <ele>140</ele>
        <time>2019-05-19T13:33:08+02:00</time>
      </trkpt>
      <trkpt lat="49.11183" lon="1.72677">
        <ele>140</ele>
        <time>2019-05-19T13:33:26+02:00</time>
      </trkpt>
      <trkpt lat="49.11202" lon="1.72699">
        <ele>140</ele>
        <time>2019-05-19T13:33:45+02:00</time>
      </trkpt>
      <trkpt lat="49.11222" lon="1.72718">
        <ele>141</ele>
        <time>2019-05-19T13:34:06+02:00</time>
      </trkpt>
      <trkpt lat="49.11239" lon="1.7274">
        <ele>142</ele>
        <time>2019-05-19T13:34:27+02:00</time>
      </trkpt>
      <trkpt lat="49.11258" lon="1.72761">
        <ele>142</ele>
        <time>2019-05-19T13:34:46+02:00</time>
      </trkpt>
      <trkpt lat="49.11278" lon="1.72779">
        <ele>142</ele>
        <time>2019-05-19T13:35:04+02:00</time>
      </trkpt>
      <trkpt lat="49.11296" lon="1.728">
        <ele>141</ele>
        <time>2019-05-19T13:36:04+02:00</time>
      </trkpt>
      <trkpt lat="49.11297" lon="1.72835">
        <ele>142</ele>
        <time>2019-05-19T13:37:38+02:00</time>
      </trkpt>
      <trkpt lat="49.11297" lon="1.7287">
        <ele>141</ele>
        <time>2019-05-19T13:37:58+02:00</time>
      </trkpt>
      <trkpt lat="49.11297" lon="1.72905">
        <ele>141</ele>
        <time>2019-05-19T13:38:17+02:00</time>
      </trkpt>
      <trkpt lat="49.113" lon="1.72941">
        <ele>140</ele>
        <time>2019-05-19T13:38:36+02:00</time>
      </trkpt>
      <trkpt lat="49.11303" lon="1.72975">
        <ele>140</ele>
        <time>2019-05-19T13:38:55+02:00</time>
      </trkpt>
      <trkpt lat="49.11306" lon="1.7301">
        <ele>140</ele>
        <time>2019-05-19T13:39:14+02:00</time>
      </trkpt>
      <trkpt lat="49.11309" lon="1.73046">
        <ele>139</ele>
        <time>2019-05-19T13:39:35+02:00</time>
      </trkpt>
      <trkpt lat="49.11313" lon="1.73081">
        <ele>139</ele>
        <time>2019-05-19T13:39:54+02:00</time>
      </trkpt>
      <trkpt lat="49.11315" lon="1.73115">
        <ele>138</ele>
        <time>2019-05-19T13:40:19+02:00</time>
      </trkpt>
      <trkpt lat="49.11318" lon="1.7315">
        <ele>138</ele>
        <time>2019-05-19T13:40:38+02:00</time>
      </trkpt>
      <trkpt lat="49.11321" lon="1.73185">
        <ele>138</ele>
        <time>2019-05-19T13:40:56+02:00</time>
      </trkpt>
      <trkpt lat="49.11324" lon="1.73218">
        <ele>137</ele>
        <time>2019-05-19T13:41:14+02:00</time>
      </trkpt>
      <trkpt lat="49.11328" lon="1.73253">
        <ele>137</ele>
        <time>2019-05-19T13:41:33+02:00</time>
      </trkpt>
      <trkpt lat="49.11334" lon="1.73288">
        <ele>136</ele>
        <time>2019-05-19T13:41:51+02:00</time>
      </trkpt>
      <trkpt lat="49.11346" lon="1.73318">
        <ele>135</ele>
        <time>2019-05-19T13:42:10+02:00</time>
      </trkpt>
      <trkpt lat="49.11365" lon="1.7334">
        <ele>135</ele>
        <time>2019-05-19T13:42:29+02:00</time>
      </trkpt>
      <trkpt lat="49.11383" lon="1.73361">
        <ele>135</ele>
        <time>2019-05-19T13:42:48+02:00</time>
      </trkpt>
      <trkpt lat="49.11403" lon="1.7338">
        <ele>134</ele>
        <time>2019-05-19T13:43:06+02:00</time>
      </trkpt>
      <trkpt lat="49.11423" lon="1.73397">
        <ele>134</ele>
        <time>2019-05-19T13:43:24+02:00</time>
      </trkpt>
      <trkpt lat="49.1144" lon="1.73421">
        <ele>134</ele>
        <time>2019-05-19T13:43:43+02:00</time>
      </trkpt>
      <trkpt lat="49.11456" lon="1.73446">
        <ele>133</ele>
        <time>2019-05-19T13:44:02+02:00</time>
      </trkpt>
      <trkpt lat="49.11471" lon="1.73473">
        <ele>132</ele>
        <time>2019-05-19T13:44:21+02:00</time>
      </trkpt>
      <trkpt lat="49.11485" lon="1.73501">
        <ele>131</ele>
        <time>2019-05-19T13:44:39+02:00</time>
      </trkpt>
      <trkpt lat="49.11499" lon="1.73528">
        <ele>131</ele>
        <time>2019-05-19T13:44:57+02:00</time>
      </trkpt>
      <trkpt lat="49.11514" lon="1.73555">
        <ele>131</ele>
        <time>2019-05-19T13:45:15+02:00</time>
      </trkpt>
      <trkpt lat="49.11529" lon="1.7358">
        <ele>131</ele>
        <time>2019-05-19T13:45:33+02:00</time>
      </trkpt>
      <trkpt lat="49.11544" lon="1.73607">
        <ele>131</ele>
        <time>2019-05-19T13:45:51+02:00</time>
      </trkpt>
      <trkpt lat="49.11561" lon="1.73632">
        <ele>130</ele>
        <time>2019-05-19T13:46:10+02:00</time>
      </trkpt>
      <trkpt lat="49.11576" lon="1.73659">
        <ele>130</ele>
        <time>2019-05-19T13:47:10+02:00</time>
      </trkpt>
      <trkpt lat="49.11593" lon="1.73685">
        <ele>130</ele>
        <time>2019-05-19T13:47:29+02:00</time>
      </trkpt>
      <trkpt lat="49.11608" lon="1.73712">
        <ele>131</ele>
        <time>2019-05-19T13:47:49+02:00</time>
      </trkpt>
      <trkpt lat="49.11623" lon="1.73738">
        <ele>131</ele>
        <time>2019-05-19T13:48:17+02:00</time>
      </trkpt>
      <trkpt lat="49.11638" lon="1.73763">
        <ele>130</ele>
        <time>2019-05-19T13:48:40+02:00</time>
      </trkpt>
      <trkpt lat="49.11652" lon="1.73792">
        <ele>130</ele>
        <time>2019-05-19T13:49:07+02:00</time>
      </trkpt>
      <trkpt lat="49.11666" lon="1.7382">
        <ele>129</ele>
        <time>2019-05-19T13:49:29+02:00</time>
      </trkpt>
      <trkpt lat="49.11682" lon="1.73846">
        <ele>128</ele>
        <time>2019-05-19T13:50:06+02:00</time>
      </trkpt>
      <trkpt lat="49.11691" lon="1.73877">
        <ele>126</ele>
        <time>2019-05-19T13:50:28+02:00</time>
      </trkpt>
      <trkpt lat="49.11705" lon="1.73904">
        <ele>125</ele>
        <time>2019-05-19T13:50:48+02:00</time>
      </trkpt>
      <trkpt lat="49.11715" lon="1.73935">
        <ele>123</ele>
        <time>2019-05-19T13:51:10+02:00</time>
      </trkpt>
      <trkpt lat="49.11722" lon="1.73969">
        <ele>121</ele>
        <time>2019-05-19T13:51:29+02:00</time>
      </trkpt>
      <trkpt lat="49.11737" lon="1.73995">
        <ele>119</ele>
        <time>2019-05-19T13:51:52+02:00</time>
      </trkpt>
      <trkpt lat="49.11754" lon="1.74018">
        <ele>118</ele>
        <time>2019-05-19T13:52:11+02:00</time>
      </trkpt>
      <trkpt lat="49.11769" lon="1.74045">
        <ele>116</ele>
        <time>2019-05-19T13:52:41+02:00</time>
      </trkpt>
      <trkpt lat="49.11782" lon="1.74074">
        <ele>114</ele>
        <time>2019-05-19T13:53:00+02:00</time>
      </trkpt>
      <trkpt lat="49.11795" lon="1.74104">
        <ele>112</ele>
        <time>2019-05-19T13:53:27+02:00</time>
      </trkpt>
      <trkpt lat="49.11809" lon="1.74133">
        <ele>109</ele>
        <time>2019-05-19T13:53:58+02:00</time>
      </trkpt>
      <trkpt lat="49.11825" lon="1.74157">
        <ele>105</ele>
        <time>2019-05-19T13:54:21+02:00</time>
      </trkpt>
      <trkpt lat="49.11842" lon="1.74182">
        <ele>103</ele>
        <time>2019-05-19T13:55:48+02:00</time>
      </trkpt>
      <trkpt lat="49.11857" lon="1.74209">
        <ele>102</ele>
        <time>2019-05-19T13:56:05+02:00</time>
      </trkpt>
      <trkpt lat="49.1187" lon="1.7424">
        <ele>101</ele>
        <time>2019-05-19T13:56:23+02:00</time>
      </trkpt>
      <trkpt lat="49.11886" lon="1.74264">
        <ele>102</ele>
        <time>2019-05-19T13:56:38+02:00</time>
      </trkpt>
      <trkpt lat="49.119" lon="1.74291">
        <ele>104</ele>
        <time>2019-05-19T13:57:08+02:00</time>
      </trkpt>
      <trkpt lat="49.11923" lon="1.74281">
        <ele>103</ele>
        <time>2019-05-19T13:57:43+02:00</time>
      </trkpt>
      <trkpt lat="49.11945" lon="1.74271">
        <ele>103</ele>
        <time>2019-05-19T13:58:09+02:00</time>
      </trkpt>
      <trkpt lat="49.11967" lon="1.74259">
        <ele>104</ele>
        <time>2019-05-19T13:58:32+02:00</time>
      </trkpt>
      <trkpt lat="49.11989" lon="1.74252">
        <ele>105</ele>
        <time>2019-05-19T13:58:53+02:00</time>
      </trkpt>
      <trkpt lat="49.12011" lon="1.74259">
        <ele>108</ele>
        <time>2019-05-19T13:59:09+02:00</time>
      </trkpt>
      <trkpt lat="49.12031" lon="1.74278">
        <ele>111</ele>
        <time>2019-05-19T13:59:32+02:00</time>
      </trkpt>
      <trkpt lat="49.12051" lon="1.74292">
        <ele>115</ele>
        <time>2019-05-19T14:00:02+02:00</time>
      </trkpt>
      <trkpt lat="49.12074" lon="1.74292">
        <ele>117</ele>
        <time>2019-05-19T14:00:30+02:00</time>
      </trkpt>
      <trkpt lat="49.12097" lon="1.74283">
        <ele>118</ele>
        <time>2019-05-19T14:00:57+02:00</time>
      </trkpt>
      <trkpt lat="49.12122" lon="1.74284">
        <ele>119</ele>
        <time>2019-05-19T14:01:25+02:00</time>
      </trkpt>
      <trkpt lat="49.12145" lon="1.74292">
        <ele>120</ele>
        <time>2019-05-19T14:01:53+02:00</time>
      </trkpt>
      <trkpt lat="49.12167" lon="1.74302">
        <ele>121</ele>
        <time>2019-05-19T14:02:20+02:00</time>
      </trkpt>
      <trkpt lat="49.12188" lon="1.74317">
        <ele>121</ele>
        <time>2019-05-19T14:02:53+02:00</time>
      </trkpt>
      <trkpt lat="49.12207" lon="1.74339">
        <ele>122</ele>
        <time>2019-05-19T14:03:18+02:00</time>
      </trkpt>
      <trkpt lat="49.12227" lon="1.74361">
        <ele>122</ele>
        <time>2019-05-19T14:03:40+02:00</time>
      </trkpt>
      <trkpt lat="49.12247" lon="1.7438">
        <ele>121</ele>
        <time>2019-05-19T14:04:19+02:00</time>
      </trkpt>
      <trkpt lat="49.12264" lon="1.74404">
        <ele>121</ele>
        <time>2019-05-19T14:04:47+02:00</time>
      </trkpt>
      <trkpt lat="49.12282" lon="1.74427">
        <ele>121</ele>
        <time>2019-05-19T14:05:08+02:00</time>
      </trkpt>
      <trkpt lat="49.12303" lon="1.7444">
        <ele>120</ele>
        <time>2019-05-19T14:05:23+02:00</time>
      </trkpt>
      <trkpt lat="49.12321" lon="1.74462">
        <ele>120</ele>
        <time>2019-05-19T14:05:43+02:00</time>
      </trkpt>
      <trkpt lat="49.12339" lon="1.74485">
        <ele>120</ele>
        <time>2019-05-19T14:06:00+02:00</time>
      </trkpt>
      <trkpt lat="49.12361" lon="1.74497">
        <ele>119</ele>
        <time>2019-05-19T14:06:33+02:00</time>
      </trkpt>
      <trkpt lat="49.12384" lon="1.74501">
        <ele>118</ele>
        <time>2019-05-19T14:06:54+02:00</time>
      </trkpt>
      <trkpt lat="49.12405" lon="1.74515">
        <ele>117</ele>
        <time>2019-05-19T14:07:13+02:00</time>
      </trkpt>
      <trkpt lat="49.12421" lon="1.7454">
        <ele>118</ele>
        <time>2019-05-19T14:07:35+02:00</time>
      </trkpt>
      <trkpt lat="49.12438" lon="1.74565">
        <ele>118</ele>
        <time>2019-05-19T14:08:37+02:00</time>
      </trkpt>
      <trkpt lat="49.12456" lon="1.74585">
        <ele>119</ele>
        <time>2019-05-19T14:08:54+02:00</time>
      </trkpt>
      <trkpt lat="49.12472" lon="1.7461">
        <ele>119</ele>
        <time>2019-05-19T14:09:12+02:00</time>
      </trkpt>
      <trkpt lat="49.12483" lon="1.7464">
        <ele>120</ele>
        <time>2019-05-19T14:09:29+02:00</time>
      </trkpt>
      <trkpt lat="49.12495" lon="1.74669">
        <ele>120</ele>
        <time>2019-05-19T14:09:47+02:00</time>
      </trkpt>
      <trkpt lat="49.12511" lon="1.74694">
        <ele>119</ele>
        <time>2019-05-19T14:10:17+02:00</time>
      </trkpt>
      <trkpt lat="49.12521" lon="1.74725">
        <ele>118</ele>
        <time>2019-05-19T14:10:40+02:00</time>
      </trkpt>
      <trkpt lat="49.12516" lon="1.7476">
        <ele>116</ele>
        <time>2019-05-19T14:11:08+02:00</time>
      </trkpt>
      <trkpt lat="49.12509" lon="1.74794">
        <ele>113</ele>
        <time>2019-05-19T14:12:07+02:00</time>
      </trkpt>
      <trkpt lat="49.12493" lon="1.7482">
        <ele>112</ele>
        <time>2019-05-19T14:13:48+02:00</time>
      </trkpt>
      <trkpt lat="49.12472" lon="1.74834">
        <ele>113</ele>
        <time>2019-05-19T14:14:12+02:00</time>
      </trkpt>
      <trkpt lat="49.12451" lon="1.74846">
        <ele>114</ele>
        <time>2019-05-19T14:14:31+02:00</time>
      </trkpt>
      <trkpt lat="49.1243" lon="1.74863">
        <ele>114</ele>
        <time>2019-05-19T14:14:51+02:00</time>
      </trkpt>
      <trkpt lat="49.12415" lon="1.74889">
        <ele>113</ele>
        <time>2019-05-19T14:15:11+02:00</time>
      </trkpt>
      <trkpt lat="49.12406" lon="1.74922">
        <ele>110</ele>
        <time>2019-05-19T14:15:30+02:00</time>
      </trkpt>
      <trkpt lat="49.12412" lon="1.74956">
        <ele>106</ele>
        <time>2019-05-19T14:16:30+02:00</time>
      </trkpt>
      <trkpt lat="49.12422" lon="1.74988">
        <ele>103</ele>
        <time>2019-05-19T14:16:49+02:00</time>
      </trkpt>
      <trkpt lat="49.12437" lon="1.75016">
        <ele>101</ele>
        <time>2019-05-19T14:17:07+02:00</time>
      </trkpt>
      <trkpt lat="49.12452" lon="1.75042">
        <ele>99</ele>
        <time>2019-05-19T14:17:25+02:00</time>
      </trkpt>
      <trkpt lat="49.12467" lon="1.7507">
        <ele>97</ele>
        <time>2019-05-19T14:17:44+02:00</time>
      </trkpt>
      <trkpt lat="49.12485" lon="1.75091">
        <ele>94</ele>
        <time>2019-05-19T14:18:04+02:00</time>
      </trkpt>
      <trkpt lat="49.12509" lon="1.75089">
        <ele>93</ele>
        <time>2019-05-19T14:18:23+02:00</time>
      </trkpt>
      <trkpt lat="49.12531" lon="1.75097">
        <ele>91</ele>
        <time>2019-05-19T14:18:57+02:00</time>
      </trkpt>
      <trkpt lat="49.12554" lon="1.75088">
        <ele>90</ele>
        <time>2019-05-19T14:19:20+02:00</time>
      </trkpt>
      <trkpt lat="49.12572" lon="1.75065">
        <ele>90</ele>
        <time>2019-05-19T14:19:38+02:00</time>
      </trkpt>
      <trkpt lat="49.12592" lon="1.75048">
        <ele>90</ele>
        <time>2019-05-19T14:19:56+02:00</time>
      </trkpt>
      <trkpt lat="49.12613" lon="1.75032">
        <ele>90</ele>
        <time>2019-05-19T14:20:14+02:00</time>
      </trkpt>
      <trkpt lat="49.12628" lon="1.75059">
        <ele>88</ele>
        <time>2019-05-19T14:20:37+02:00</time>
      </trkpt>
      <trkpt lat="49.12634" lon="1.75093">
        <ele>86</ele>
        <time>2019-05-19T14:20:59+02:00</time>
      </trkpt>
      <trkpt lat="49.12651" lon="1.75117">
        <ele>84</ele>
        <time>2019-05-19T14:21:27+02:00</time>
      </trkpt>
      <trkpt lat="49.12661" lon="1.75148">
        <ele>83</ele>
        <time>2019-05-19T14:22:04+02:00</time>
      </trkpt>
      <trkpt lat="49.12674" lon="1.75179">
        <ele>82</ele>
        <time>2019-05-19T14:22:26+02:00</time>
      </trkpt>
      <trkpt lat="49.12675" lon="1.75215">
        <ele>83</ele>
        <time>2019-05-19T14:22:44+02:00</time>
      </trkpt>
      <trkpt lat="49.12688" lon="1.75243">
        <ele>83</ele>
        <time>2019-05-19T14:23:08+02:00</time>
      </trkpt>
      <trkpt lat="49.1267" lon="1.75263">
        <ele>84</ele>
        <time>2019-05-19T14:23:55+02:00</time>
      </trkpt>
      <trkpt lat="49.12653" lon="1.75286">
        <ele>85</ele>
        <time>2019-05-19T14:24:13+02:00</time>
      </trkpt>
      <trkpt lat="49.12635" lon="1.75309">
        <ele>86</ele>
        <time>2019-05-19T14:24:32+02:00</time>
      </trkpt>
      <trkpt lat="49.12616" lon="1.75327">
        <ele>86</ele>
        <time>2019-05-19T14:25:26+02:00</time>
      </trkpt>
      <trkpt lat="49.12597" lon="1.75346">
        <ele>85</ele>
        <time>2019-05-19T14:25:47+02:00</time>
      </trkpt>
      <trkpt lat="49.12585" lon="1.75378">
        <ele>85</ele>
        <time>2019-05-19T14:26:07+02:00</time>
      </trkpt>
      <trkpt lat="49.12566" lon="1.75397">
        <ele>85</ele>
        <time>2019-05-19T14:26:29+02:00</time>
      </trkpt>
      <trkpt lat="49.12547" lon="1.75418">
        <ele>85</ele>
        <time>2019-05-19T14:26:47+02:00</time>
      </trkpt>
      <trkpt lat="49.12536" lon="1.7545">
        <ele>86</ele>
        <time>2019-05-19T14:27:08+02:00</time>
      </trkpt>
      <trkpt lat="49.12528" lon="1.75484">
        <ele>88</ele>
        <time>2019-05-19T14:27:28+02:00</time>
      </trkpt>
      <trkpt lat="49.12526" lon="1.75519">
        <ele>89</ele>
        <time>2019-05-19T14:27:49+02:00</time>
      </trkpt>
      <trkpt lat="49.12522" lon="1.75553">
        <ele>90</ele>
        <time>2019-05-19T14:28:11+02:00</time>
      </trkpt>
      <trkpt lat="49.12516" lon="1.75587">
        <ele>90</ele>
        <time>2019-05-19T14:28:31+02:00</time>
      </trkpt>
      <trkpt lat="49.12508" lon="1.75619">
        <ele>91</ele>
        <time>2019-05-19T14:28:48+02:00</time>
      </trkpt>
      <trkpt lat="49.12492" lon="1.75644">
        <ele>91</ele>
        <time>2019-05-19T14:29:08+02:00</time>
      </trkpt>
      <trkpt lat="49.12474" lon="1.75665">
        <ele>92</ele>
        <time>2019-05-19T14:29:28+02:00</time>
      </trkpt>
      <trkpt lat="49.12457" lon="1.75689">
        <ele>94</ele>
        <time>2019-05-19T14:29:57+02:00</time>
      </trkpt>
      <trkpt lat="49.12436" lon="1.75704">
        <ele>95</ele>
        <time>2019-05-19T14:30:22+02:00</time>
      </trkpt>
      <trkpt lat="49.12415" lon="1.75719">
        <ele>96</ele>
        <time>2019-05-19T14:30:46+02:00</time>
      </trkpt>
      <trkpt lat="49.12393" lon="1.7573">
        <ele>96</ele>
        <time>2019-05-19T14:31:10+02:00</time>
      </trkpt>
      <trkpt lat="49.12372" lon="1.75743">
        <ele>96</ele>
        <time>2019-05-19T14:31:34+02:00</time>
      </trkpt>
      <trkpt lat="49.12351" lon="1.75758">
        <ele>96</ele>
        <time>2019-05-19T14:31:57+02:00</time>
      </trkpt>
      <trkpt lat="49.12332" lon="1.75778">
        <ele>97</ele>
        <time>2019-05-19T14:32:17+02:00</time>
      </trkpt>
      <trkpt lat="49.12314" lon="1.75798">
        <ele>98</ele>
        <time>2019-05-19T14:32:38+02:00</time>
      </trkpt>
      <trkpt lat="49.12295" lon="1.75817">
        <ele>99</ele>
        <time>2019-05-19T14:40:34+02:00</time>
      </trkpt>
      <trkpt lat="49.12275" lon="1.75835">
        <ele>99</ele>
        <time>2019-05-19T14:49:21+02:00</time>
      </trkpt>
      <trkpt lat="49.1226" lon="1.75863">
        <ele>100</ele>
        <time>2019-05-19T14:49:43+02:00</time>
      </trkpt>
      <trkpt lat="49.12254" lon="1.75896">
        <ele>101</ele>
        <time>2019-05-19T14:50:04+02:00</time>
      </trkpt>
      <trkpt lat="49.12242" lon="1.75926">
        <ele>102</ele>
        <time>2019-05-19T14:50:26+02:00</time>
      </trkpt>
      <trkpt lat="49.12232" lon="1.75957">
        <ele>104</ele>
        <time>2019-05-19T14:50:48+02:00</time>
      </trkpt>
      <trkpt lat="49.1222" lon="1.75986">
        <ele>105</ele>
        <time>2019-05-19T14:51:10+02:00</time>
      </trkpt>
      <trkpt lat="49.12209" lon="1.76017">
        <ele>106</ele>
        <time>2019-05-19T14:51:32+02:00</time>
      </trkpt>
      <trkpt lat="49.12196" lon="1.76048">
        <ele>107</ele>
        <time>2019-05-19T14:51:53+02:00</time>
      </trkpt>
      <trkpt lat="49.12184" lon="1.76076">
        <ele>108</ele>
        <time>2019-05-19T14:52:17+02:00</time>
      </trkpt>
      <trkpt lat="49.12171" lon="1.76105">
        <ele>108</ele>
        <time>2019-05-19T14:52:37+02:00</time>
      </trkpt>
      <trkpt lat="49.12157" lon="1.76132">
        <ele>108</ele>
        <time>2019-05-19T14:53:02+02:00</time>
      </trkpt>
      <trkpt lat="49.12142" lon="1.76161">
        <ele>107</ele>
        <time>2019-05-19T14:53:24+02:00</time>
      </trkpt>
      <trkpt lat="49.1213" lon="1.76191">
        <ele>106</ele>
        <time>2019-05-19T14:53:46+02:00</time>
      </trkpt>
      <trkpt lat="49.12122" lon="1.76225">
        <ele>106</ele>
        <time>2019-05-19T14:54:09+02:00</time>
      </trkpt>
      <trkpt lat="49.12117" lon="1.76259">
        <ele>107</ele>
        <time>2019-05-19T14:54:32+02:00</time>
      </trkpt>
      <trkpt lat="49.12116" lon="1.76294">
        <ele>106</ele>
        <time>2019-05-19T14:54:51+02:00</time>
      </trkpt>
      <trkpt lat="49.12119" lon="1.76328">
        <ele>106</ele>
        <time>2019-05-19T14:55:10+02:00</time>
      </trkpt>
      <trkpt lat="49.12121" lon="1.76363">
        <ele>107</ele>
        <time>2019-05-19T14:56:01+02:00</time>
      </trkpt>
      <trkpt lat="49.12123" lon="1.76398">
        <ele>107</ele>
        <time>2019-05-19T14:56:27+02:00</time>
      </trkpt>
      <trkpt lat="49.12126" lon="1.76432">
        <ele>107</ele>
        <time>2019-05-19T14:56:47+02:00</time>
      </trkpt>
      <trkpt lat="49.12131" lon="1.76467">
        <ele>107</ele>
        <time>2019-05-19T14:57:09+02:00</time>
      </trkpt>
      <trkpt lat="49.12132" lon="1.76502">
        <ele>107</ele>
        <time>2019-05-19T14:57:34+02:00</time>
      </trkpt>
      <trkpt lat="49.12134" lon="1.76537">
        <ele>107</ele>
        <time>2019-05-19T14:57:58+02:00</time>
      </trkpt>
      <trkpt lat="49.12135" lon="1.76574">
        <ele>107</ele>
        <time>2019-05-19T14:58:21+02:00</time>
      </trkpt>
      <trkpt lat="49.1213" lon="1.76608">
        <ele>106</ele>
        <time>2019-05-19T14:58:38+02:00</time>
      </trkpt>
      <trkpt lat="49.12128" lon="1.76644">
        <ele>106</ele>
        <time>2019-05-19T14:59:07+02:00</time>
      </trkpt>
      <trkpt lat="49.12126" lon="1.76679">
        <ele>105</ele>
        <time>2019-05-19T14:59:29+02:00</time>
      </trkpt>
      <trkpt lat="49.1213" lon="1.76714">
        <ele>107</ele>
        <time>2019-05-19T14:59:54+02:00</time>
      </trkpt>
      <trkpt lat="49.12127" lon="1.76749">
        <ele>107</ele>
        <time>2019-05-19T15:00:38+02:00</time>
      </trkpt>
      <trkpt lat="49.1212" lon="1.76782">
        <ele>108</ele>
        <time>2019-05-19T15:00:58+02:00</time>
      </trkpt>
      <trkpt lat="49.12114" lon="1.76815">
        <ele>109</ele>
        <time>2019-05-19T15:01:18+02:00</time>
      </trkpt>
      <trkpt lat="49.12106" lon="1.76848">
        <ele>109</ele>
        <time>2019-05-19T15:01:38+02:00</time>
      </trkpt>
      <trkpt lat="49.12102" lon="1.76882">
        <ele>109</ele>
        <time>2019-05-19T15:01:59+02:00</time>
      </trkpt>
      <trkpt lat="49.12101" lon="1.76917">
        <ele>109</ele>
        <time>2019-05-19T15:02:20+02:00</time>
      </trkpt>
      <trkpt lat="49.12099" lon="1.76952">
        <ele>109</ele>
        <time>2019-05-19T15:02:40+02:00</time>
      </trkpt>
      <trkpt lat="49.12097" lon="1.7699">
        <ele>108</ele>
        <time>2019-05-19T15:03:15+02:00</time>
      </trkpt>
      <trkpt lat="49.12094" lon="1.77024">
        <ele>108</ele>
        <time>2019-05-19T15:03:38+02:00</time>
      </trkpt>
      <trkpt lat="49.12091" lon="1.7706">
        <ele>108</ele>
        <time>2019-05-19T15:03:56+02:00</time>
      </trkpt>
      <trkpt lat="49.12087" lon="1.77095">
        <ele>108</ele>
        <time>2019-05-19T15:04:17+02:00</time>
      </trkpt>
      <trkpt lat="49.12079" lon="1.77127">
        <ele>108</ele>
        <time>2019-05-19T15:04:55+02:00</time>
      </trkpt>
      <trkpt lat="49.12071" lon="1.7716">
        <ele>109</ele>
        <time>2019-05-19T15:05:17+02:00</time>
      </trkpt>
      <trkpt lat="49.1206" lon="1.77192">
        <ele>110</ele>
        <time>2019-05-19T15:05:39+02:00</time>
      </trkpt>
      <trkpt lat="49.1205" lon="1.77226">
        <ele>111</ele>
        <time>2019-05-19T15:06:03+02:00</time>
      </trkpt>
      <trkpt lat="49.12033" lon="1.77251">
        <ele>110</ele>
        <time>2019-05-19T15:06:34+02:00</time>
      </trkpt>
      <trkpt lat="49.12021" lon="1.77282">
        <ele>111</ele>
        <time>2019-05-19T15:06:56+02:00</time>
      </trkpt>
      <trkpt lat="49.12009" lon="1.77312">
        <ele>111</ele>
        <time>2019-05-19T15:07:17+02:00</time>
      </trkpt>
      <trkpt lat="49.11993" lon="1.77337">
        <ele>111</ele>
        <time>2019-05-19T15:07:37+02:00</time>
      </trkpt>
      <trkpt lat="49.11978" lon="1.77363">
        <ele>113</ele>
        <time>2019-05-19T15:07:57+02:00</time>
      </trkpt>
      <trkpt lat="49.11962" lon="1.77391">
        <ele>114</ele>
        <time>2019-05-19T15:08:16+02:00</time>
      </trkpt>
      <trkpt lat="49.11949" lon="1.77419">
        <ele>114</ele>
        <time>2019-05-19T15:08:34+02:00</time>
      </trkpt>
      <trkpt lat="49.11938" lon="1.7745">
        <ele>114</ele>
        <time>2019-05-19T15:08:55+02:00</time>
      </trkpt>
      <trkpt lat="49.11935" lon="1.77486">
        <ele>115</ele>
        <time>2019-05-19T15:09:41+02:00</time>
      </trkpt>
      <trkpt lat="49.11931" lon="1.77521">
        <ele>116</ele>
        <time>2019-05-19T15:10:00+02:00</time>
      </trkpt>
      <trkpt lat="49.11935" lon="1.77556">
        <ele>117</ele>
        <time>2019-05-19T15:10:21+02:00</time>
      </trkpt>
      <trkpt lat="49.11918" lon="1.7758">
        <ele>115</ele>
        <time>2019-05-19T15:10:39+02:00</time>
      </trkpt>
      <trkpt lat="49.119" lon="1.77602">
        <ele>118</ele>
        <time>2019-05-19T15:10:58+02:00</time>
      </trkpt>
      <trkpt lat="49.11881" lon="1.77622">
        <ele>120</ele>
        <time>2019-05-19T15:11:17+02:00</time>
      </trkpt>
      <trkpt lat="49.11862" lon="1.7764">
        <ele>122</ele>
        <time>2019-05-19T15:11:38+02:00</time>
      </trkpt>
      <trkpt lat="49.11848" lon="1.77667">
        <ele>122</ele>
        <time>2019-05-19T15:12:00+02:00</time>
      </trkpt>
      <trkpt lat="49.11842" lon="1.77701">
        <ele>122</ele>
        <time>2019-05-19T15:12:26+02:00</time>
      </trkpt>
      <trkpt lat="49.11836" lon="1.77735">
        <ele>121</ele>
        <time>2019-05-19T15:12:49+02:00</time>
      </trkpt>
      <trkpt lat="49.11826" lon="1.77766">
        <ele>122</ele>
        <time>2019-05-19T15:13:10+02:00</time>
      </trkpt>
      <trkpt lat="49.11819" lon="1.778">
        <ele>122</ele>
        <time>2019-05-19T15:13:31+02:00</time>
      </trkpt>
      <trkpt lat="49.11813" lon="1.77833">
        <ele>122</ele>
        <time>2019-05-19T15:13:49+02:00</time>
      </trkpt>
      <trkpt lat="49.11809" lon="1.77868">
        <ele>122</ele>
        <time>2019-05-19T15:14:09+02:00</time>
      </trkpt>
      <trkpt lat="49.11808" lon="1.77903">
        <ele>122</ele>
        <time>2019-05-19T15:14:33+02:00</time>
      </trkpt>
      <trkpt lat="49.118" lon="1.77936">
        <ele>121</ele>
        <time>2019-05-19T15:14:52+02:00</time>
      </trkpt>
      <trkpt lat="49.11791" lon="1.77969">
        <ele>121</ele>
        <time>2019-05-19T15:15:12+02:00</time>
      </trkpt>
      <trkpt lat="49.1177" lon="1.77983">
        <ele>120</ele>
        <time>2019-05-19T15:15:36+02:00</time>
      </trkpt>
      <trkpt lat="49.11749" lon="1.77969">
        <ele>120</ele>
        <time>2019-05-19T15:15:57+02:00</time>
      </trkpt>
      <trkpt lat="49.11726" lon="1.77962">
        <ele>121</ele>
        <time>2019-05-19T15:16:17+02:00</time>
      </trkpt>
      <trkpt lat="49.11704" lon="1.77963">
        <ele>121</ele>
        <time>2019-05-19T15:16:37+02:00</time>
      </trkpt>
      <trkpt lat="49.1168" lon="1.77962">
        <ele>121</ele>
        <time>2019-05-19T15:17:02+02:00</time>
      </trkpt>
      <trkpt lat="49.11657" lon="1.77959">
        <ele>121</ele>
        <time>2019-05-19T15:17:25+02:00</time>
      </trkpt>
      <trkpt lat="49.11635" lon="1.77955">
        <ele>122</ele>
        <time>2019-05-19T15:17:47+02:00</time>
      </trkpt>
      <trkpt lat="49.11612" lon="1.77957">
        <ele>122</ele>
        <time>2019-05-19T15:18:09+02:00</time>
      </trkpt>
      <trkpt lat="49.11589" lon="1.77959">
        <ele>123</ele>
        <time>2019-05-19T15:18:31+02:00</time>
      </trkpt>
      <trkpt lat="49.11566" lon="1.77961">
        <ele>123</ele>
        <time>2019-05-19T15:18:52+02:00</time>
      </trkpt>
      <trkpt lat="49.11543" lon="1.77963">
        <ele>124</ele>
        <time>2019-05-19T15:19:13+02:00</time>
      </trkpt>
      <trkpt lat="49.1152" lon="1.77962">
        <ele>124</ele>
        <time>2019-05-19T15:19:35+02:00</time>
      </trkpt>
      <trkpt lat="49.11497" lon="1.77958">
        <ele>125</ele>
        <time>2019-05-19T15:19:59+02:00</time>
      </trkpt>
      <trkpt lat="49.11474" lon="1.77958">
        <ele>125</ele>
        <time>2019-05-19T15:20:22+02:00</time>
      </trkpt>
      <trkpt lat="49.11452" lon="1.77955">
        <ele>126</ele>
        <time>2019-05-19T15:20:41+02:00</time>
      </trkpt>
      <trkpt lat="49.11428" lon="1.77954">
        <ele>127</ele>
        <time>2019-05-19T15:21:04+02:00</time>
      </trkpt>
      <trkpt lat="49.11405" lon="1.77952">
        <ele>127</ele>
        <time>2019-05-19T15:21:27+02:00</time>
      </trkpt>
      <trkpt lat="49.11383" lon="1.77946">
        <ele>127</ele>
        <time>2019-05-19T15:21:48+02:00</time>
      </trkpt>
      <trkpt lat="49.11361" lon="1.77934">
        <ele>128</ele>
        <time>2019-05-19T15:23:13+02:00</time>
      </trkpt>
      <trkpt lat="49.11338" lon="1.77924">
        <ele>128</ele>
        <time>2019-05-19T15:23:36+02:00</time>
      </trkpt>
      <trkpt lat="49.11316" lon="1.77913">
        <ele>128</ele>
        <time>2019-05-19T15:23:56+02:00</time>
      </trkpt>
      <trkpt lat="49.11294" lon="1.77903">
        <ele>128</ele>
        <time>2019-05-19T15:24:16+02:00</time>
      </trkpt>
      <trkpt lat="49.11272" lon="1.77896">
        <ele>128</ele>
        <time>2019-05-19T15:24:36+02:00</time>
      </trkpt>
      <trkpt lat="49.1125" lon="1.77887">
        <ele>129</ele>
        <time>2019-05-19T15:24:55+02:00</time>
      </trkpt>
      <trkpt lat="49.11227" lon="1.77878">
        <ele>129</ele>
        <time>2019-05-19T15:25:15+02:00</time>
      </trkpt>
      <trkpt lat="49.11206" lon="1.77869">
        <ele>129</ele>
        <time>2019-05-19T15:25:35+02:00</time>
      </trkpt>
      <trkpt lat="49.11184" lon="1.77859">
        <ele>129</ele>
        <time>2019-05-19T15:25:55+02:00</time>
      </trkpt>
      <trkpt lat="49.11161" lon="1.77849">
        <ele>129</ele>
        <time>2019-05-19T15:26:16+02:00</time>
      </trkpt>
      <trkpt lat="49.11139" lon="1.77839">
        <ele>129</ele>
        <time>2019-05-19T15:27:07+02:00</time>
      </trkpt>
      <trkpt lat="49.11116" lon="1.77831">
        <ele>129</ele>
        <time>2019-05-19T15:27:28+02:00</time>
      </trkpt>
      <trkpt lat="49.11094" lon="1.7782">
        <ele>129</ele>
        <time>2019-05-19T15:27:50+02:00</time>
      </trkpt>
      <trkpt lat="49.11072" lon="1.7781">
        <ele>130</ele>
        <time>2019-05-19T15:28:12+02:00</time>
      </trkpt>
      <trkpt lat="49.1105" lon="1.77799">
        <ele>130</ele>
        <time>2019-05-19T15:28:34+02:00</time>
      </trkpt>
      <trkpt lat="49.11028" lon="1.77791">
        <ele>131</ele>
        <time>2019-05-19T15:28:55+02:00</time>
      </trkpt>
      <trkpt lat="49.11006" lon="1.77782">
        <ele>131</ele>
        <time>2019-05-19T15:29:16+02:00</time>
      </trkpt>
      <trkpt lat="49.10985" lon="1.77772">
        <ele>132</ele>
        <time>2019-05-19T15:29:37+02:00</time>
      </trkpt>
      <trkpt lat="49.10963" lon="1.77764">
        <ele>133</ele>
        <time>2019-05-19T15:29:58+02:00</time>
      </trkpt>
      <trkpt lat="49.10941" lon="1.77754">
        <ele>134</ele>
        <time>2019-05-19T15:30:22+02:00</time>
      </trkpt>
      <trkpt lat="49.10919" lon="1.77745">
        <ele>135</ele>
        <time>2019-05-19T15:30:42+02:00</time>
      </trkpt>
      <trkpt lat="49.10896" lon="1.77735">
        <ele>135</ele>
        <time>2019-05-19T15:31:14+02:00</time>
      </trkpt>
      <trkpt lat="49.10874" lon="1.77725">
        <ele>136</ele>
        <time>2019-05-19T15:31:37+02:00</time>
      </trkpt>
      <trkpt lat="49.10852" lon="1.77714">
        <ele>136</ele>
        <time>2019-05-19T15:32:00+02:00</time>
      </trkpt>
      <trkpt lat="49.1083" lon="1.77703">
        <ele>137</ele>
        <time>2019-05-19T15:32:22+02:00</time>
      </trkpt>
      <trkpt lat="49.10808" lon="1.77695">
        <ele>137</ele>
        <time>2019-05-19T15:32:44+02:00</time>
      </trkpt>
      <trkpt lat="49.10785" lon="1.7769">
        <ele>138</ele>
        <time>2019-05-19T15:33:07+02:00</time>
      </trkpt>
      <trkpt lat="49.10762" lon="1.7769">
        <ele>138</ele>
        <time>2019-05-19T15:33:29+02:00</time>
      </trkpt>
      <trkpt lat="49.10739" lon="1.77686">
        <ele>139</ele>
        <time>2019-05-19T15:33:51+02:00</time>
      </trkpt>
      <trkpt lat="49.10716" lon="1.77683">
        <ele>139</ele>
        <time>2019-05-19T15:34:13+02:00</time>
      </trkpt>
      <trkpt lat="49.10693" lon="1.77679">
        <ele>139</ele>
        <time>2019-05-19T15:34:34+02:00</time>
      </trkpt>
      <trkpt lat="49.1067" lon="1.77676">
        <ele>139</ele>
        <time>2019-05-19T15:34:58+02:00</time>
      </trkpt>
      <trkpt lat="49.10647" lon="1.77668">
        <ele>139</ele>
        <time>2019-05-19T15:35:22+02:00</time>
      </trkpt>
      <trkpt lat="49.10625" lon="1.77659">
        <ele>139</ele>
        <time>2019-05-19T15:35:45+02:00</time>
      </trkpt>
      <trkpt lat="49.10603" lon="1.77652">
        <ele>139</ele>
        <time>2019-05-19T15:36:06+02:00</time>
      </trkpt>
      <trkpt lat="49.1058" lon="1.77647">
        <ele>139</ele>
        <time>2019-05-19T15:36:27+02:00</time>
      </trkpt>
      <trkpt lat="49.10557" lon="1.77642">
        <ele>140</ele>
        <time>2019-05-19T15:36:48+02:00</time>
      </trkpt>
      <trkpt lat="49.10534" lon="1.77637">
        <ele>140</ele>
        <time>2019-05-19T15:37:09+02:00</time>
      </trkpt>
      <trkpt lat="49.10511" lon="1.77633">
        <ele>140</ele>
        <time>2019-05-19T15:37:29+02:00</time>
      </trkpt>
      <trkpt lat="49.10488" lon="1.77628">
        <ele>140</ele>
        <time>2019-05-19T15:37:49+02:00</time>
      </trkpt>
      <trkpt lat="49.10465" lon="1.77622">
        <ele>140</ele>
        <time>2019-05-19T15:38:11+02:00</time>
      </trkpt>
      <trkpt lat="49.10442" lon="1.77615">
        <ele>140</ele>
        <time>2019-05-19T15:38:33+02:00</time>
      </trkpt>
      <trkpt lat="49.10419" lon="1.77611">
        <ele>140</ele>
        <time>2019-05-19T15:38:54+02:00</time>
      </trkpt>
      <trkpt lat="49.10396" lon="1.77606">
        <ele>141</ele>
        <time>2019-05-19T15:39:14+02:00</time>
      </trkpt>
      <trkpt lat="49.10373" lon="1.77602">
        <ele>142</ele>
        <time>2019-05-19T15:39:33+02:00</time>
      </trkpt>
      <trkpt lat="49.1035" lon="1.77594">
        <ele>143</ele>
        <time>2019-05-19T15:39:56+02:00</time>
      </trkpt>
      <trkpt lat="49.10327" lon="1.7759">
        <ele>144</ele>
        <time>2019-05-19T15:40:16+02:00</time>
      </trkpt>
      <trkpt lat="49.10304" lon="1.77585">
        <ele>146</ele>
        <time>2019-05-19T15:40:38+02:00</time>
      </trkpt>
      <trkpt lat="49.10281" lon="1.77581">
        <ele>148</ele>
        <time>2019-05-19T15:41:02+02:00</time>
      </trkpt>
      <trkpt lat="49.10258" lon="1.77575">
        <ele>150</ele>
        <time>2019-05-19T15:41:26+02:00</time>
      </trkpt>
      <trkpt lat="49.10235" lon="1.77571">
        <ele>152</ele>
        <time>2019-05-19T15:41:50+02:00</time>
      </trkpt>
      <trkpt lat="49.10212" lon="1.77567">
        <ele>154</ele>
        <time>2019-05-19T15:42:13+02:00</time>
      </trkpt>
      <trkpt lat="49.10189" lon="1.77562">
        <ele>156</ele>
        <time>2019-05-19T15:42:38+02:00</time>
      </trkpt>
      <trkpt lat="49.10166" lon="1.77555">
        <ele>157</ele>
        <time>2019-05-19T15:43:02+02:00</time>
      </trkpt>
      <trkpt lat="49.10144" lon="1.77549">
        <ele>159</ele>
        <time>2019-05-19T15:43:26+02:00</time>
      </trkpt>
      <trkpt lat="49.10122" lon="1.77538">
        <ele>160</ele>
        <time>2019-05-19T15:43:52+02:00</time>
      </trkpt>
      <trkpt lat="49.101" lon="1.77535">
        <ele>161</ele>
        <time>2019-05-19T15:44:18+02:00</time>
      </trkpt>
      <trkpt lat="49.10077" lon="1.77529">
        <ele>162</ele>
        <time>2019-05-19T15:44:39+02:00</time>
      </trkpt>
      <trkpt lat="49.10054" lon="1.77519">
        <ele>163</ele>
        <time>2019-05-19T15:45:02+02:00</time>
      </trkpt>
      <trkpt lat="49.10032" lon="1.77512">
        <ele>164</ele>
        <time>2019-05-19T15:45:26+02:00</time>
      </trkpt>
      <trkpt lat="49.10009" lon="1.77507">
        <ele>166</ele>
        <time>2019-05-19T15:45:49+02:00</time>
      </trkpt>
      <trkpt lat="49.09987" lon="1.77498">
        <ele>166</ele>
        <time>2019-05-19T15:46:14+02:00</time>
      </trkpt>
      <trkpt lat="49.09965" lon="1.77513">
        <ele>167</ele>
        <time>2019-05-19T15:46:42+02:00</time>
      </trkpt>
      <trkpt lat="49.09966" lon="1.77547">
        <ele>168</ele>
        <time>2019-05-19T15:47:13+02:00</time>
      </trkpt>
      <trkpt lat="49.09981" lon="1.77574">
        <ele>168</ele>
        <time>2019-05-19T15:47:36+02:00</time>
      </trkpt>
      <trkpt lat="49.10002" lon="1.77585">
        <ele>168</ele>
        <time>2019-05-19T15:48:01+02:00</time>
      </trkpt>
    </trkseg>
  </trk>
</gpx>